Radiosonde details



Informationen :

Serial : U4334619
Type : Vaisala RS41-SGP
Date of production : 26.10.2022
Frequency : 403.700MHz
Launchsite : Budapest
Nearest town : Atico, PE (207km)

Altitude (Max) : 30329m at 2026-09-03 12:39:19
Speed (Max) : 206km/h at altitude 990m

Average speed : 61km/h
Average ascent rate : 6m/s
Average descent rate : -1m/s
Ascent rate (Max) : 10.7m/s
Descent rate (Max): -3.2m/s

First frame :
OM5KV at 2026-09-03 11:22:12 at altitude 1171m (OG: 1004m)
Last frame :
GYPAP8-17 at 2026-09-03 13:06:53 at altitude 22m (OG: -20m)

Flighttime : 1h44m41s
Ascent time : 1h17m7s
Descent time : 27m34s
Uptime : 1h56m04s
Killtimer : -

Distance (Straight line distance): 11722km

Distance (Route):


Frames : 650


Measurement :

Temperature : -7.0°C
Humidity : 82.5%
Pressure : 581.9hPa


Vertical profile (SkewT) :


Elevation profile :



Receiving stations :


Receiver Frames First received Last received
PETON7-10 276 2026-09-03 11:37:02 2026-09-03 12:50:53
ATIDSZ-14 146 2026-09-03 11:26:32 2026-09-03 12:27:43
GYPAP8-17 85 2026-09-03 11:32:07 2026-09-03 13:06:53
OM5KV 55 2026-09-03 11:22:12 2026-09-03 11:28:18
OE5DRO-10 39 2026-09-03 12:29:12 2026-09-03 12:50:14
OE3JTB-15 23 2026-09-03 11:37:06 2026-09-03 12:50:55
OE5DXL-15 12 2026-09-03 12:27:24 2026-09-03 12:38:13
9A1FER-10 7 2026-09-03 11:56:34 2026-09-03 12:16:45
LZ4TU-5 6 2026-09-03 12:09:39 2026-09-03 12:39:26
SQ9EZE-14 1 2026-09-03 12:49:33 2026-09-03 12:49:33

Share per receiver :



All frames :


Receiver Date Latitude Longitude Direction Speed Altitude Climb Temperature Humidity Pressure Voltage Killtimer Uptime BKT XDATA
GYPAP8-172026-09-03 13:06:53-17.97013-74.253840km/h22m0.0m/s-7.0°C82.5%581.9hPa2.7V00:00:0000:00:0000:00:00
GYPAP8-172026-09-03 13:05:42-17.97013-74.253840km/h22m0.0m/s-14.7°C72.7%508.3hPa2.7V00:00:0000:00:0000:00:00
GYPAP8-172026-09-03 13:04:40-17.97013-74.253840km/h22m0.0m/s-18.3°C28.0%449.9hPa2.7V00:00:0000:00:0000:00:00
GYPAP8-172026-09-03 13:03:21-17.97013-74.253840km/h22m0.0m/s-28.8°C35.7%380.7hPa2.7V00:00:0000:00:0000:00:00
GYPAP8-172026-09-03 13:02:14-17.97013-74.253840km/h22m0.0m/s-36.6°C19.1%326.9hPa2.7V00:00:0000:00:0000:00:00
GYPAP8-172026-09-03 13:01:15-17.97013-74.253840km/h22m0.0m/s-44.8°C60.4%279.8hPa2.7V00:00:0000:00:0000:00:00
GYPAP8-172026-09-03 13:00:06-17.97013-74.253840km/h22m0.0m/s-54.9°C30.9%230.3hPa2.7V00:00:0000:00:0000:00:00
GYPAP8-172026-09-03 12:58:22-17.97013-74.253840km/h22m0.0m/s-52.0°C1.0%164.6hPa2.7V00:00:0000:00:0000:00:00
GYPAP8-172026-09-03 12:57:16-16.67323-76.392270km/h16m0.0m/s-54.9°C0.6%130.1hPa2.7V00:00:0000:00:0000:00:00
GYPAP8-172026-09-03 12:56:10-12.03675-77.060380km/h1028m0.0m/s-53.0°C0.3%101.6hPa2.7V00:00:0000:00:0000:00:00
GYPAP8-172026-09-03 12:55:08-12.03675-77.060380km/h1028m0.0m/s-54.1°C0.2%79.2hPa2.7V00:00:0000:00:0000:00:00
GYPAP8-172026-09-03 12:53:40-12.03675-77.060380km/h1028m0.0m/s-53.3°C0.1%54.2hPa2.7V00:00:0000:00:0000:00:00
GYPAP8-172026-09-03 12:52:28-12.03675-77.060380km/h1028m0.0m/s-52.0°C0.1%38.6hPa2.7V00:00:0000:00:0000:00:00
GYPAP8-172026-09-03 12:51:13-12.03675-77.060380km/h1028m0.0m/s-49.9°C0%26.3hPa2.7V00:00:0000:00:0000:00:00
OE3JTB-152026-09-03 12:50:55-12.04584-77.05594315°199km/h991m-0.4m/s-48.7°C2.6%23.5hPa2.7V00:00:0001:56:0400:00:00
PETON7-102026-09-03 12:50:53-12.04584-77.05594315°199km/h991m-0.4m/s-48.7°C2.6%23.5hPa2.7V00:00:0000:00:0008:30:00
PETON7-102026-09-03 12:50:46-12.04775-77.05293292°199km/h991m-0.4m/s-47.3°C2.3%22.5hPa2.6V00:00:0000:00:0000:00:00
OE3JTB-152026-09-03 12:50:41-12.04839-77.04941270°199km/h991m-0.4m/s-46.4°C2.2%21.7hPa2.6V00:00:0000:00:0000:00:00
PETON7-102026-09-03 12:50:39-12.04839-77.04941270°199km/h991m-0.4m/s-46.4°C2.2%21.7hPa2.7V00:00:0001:55:5000:00:00
OE3JTB-152026-09-03 12:50:36-12.04799-77.04689253°199km/h992m-0.4m/s-45.8°C2.0%20.9hPa2.7V00:00:0000:00:0000:00:00
PETON7-102026-09-03 12:50:34-12.04799-77.04689253°199km/h992m-0.4m/s-45.8°C2.0%20.9hPa2.7V00:00:0000:00:0000:00:00
PETON7-102026-09-03 12:50:33-12.04783-77.04640251°199km/h992m-0.7m/s-45.8°C2.0%20.9hPa2.6V00:00:0000:00:0000:00:00
PETON7-102026-09-03 12:50:29-12.04692-77.04457237°199km/h991m0.4m/s-46.3°C2.2%20.4hPa2.6V00:00:0001:55:4000:00:00
OE5DRO-102026-09-03 12:50:14-12.04074-77.04050190°199km/h989m-0.4m/s-46.3°C2.3%18.6hPa2.6V00:00:0000:00:0000:00:00
PETON7-102026-09-03 12:50:14-12.04074-77.04050190°199km/h989m-0.4m/s-46.3°C2.3%18.6hPa2.6V00:00:0000:00:0000:00:00
OE5DRO-102026-09-03 12:50:12-12.03973-77.04040183°199km/h989m-0.4m/s-46.3°C2.3%18.3hPa2.7V00:00:0000:00:0000:00:00
PETON7-102026-09-03 12:50:12-12.03973-77.04040183°199km/h989m-0.4m/s-46.3°C2.3%18.3hPa2.7V00:00:0000:00:0000:00:00
PETON7-102026-09-03 12:50:04-12.03578-77.04114157°199km/h989m-0.4m/s-45.3°C2.2%17.5hPa2.7V00:00:0001:55:1500:00:00
OE5DRO-102026-09-03 12:50:01-12.03444-77.04186147°199km/h991m-0.4m/s-44.4°C1.9%17.2hPa2.7V00:00:0000:00:0000:00:00
PETON7-102026-09-03 12:50:01-12.03444-77.04186147°199km/h991m-0.4m/s-44.4°C1.9%17.2hPa2.7V00:00:0000:00:0000:00:00
GYPAP8-172026-09-03 12:50:00-12.03444-77.04186148°197km/h991m-0.4m/s-44.4°C0%17.3hPa2.7V00:00:0000:00:0000:00:00
PETON7-102026-09-03 12:49:56-12.03253-77.04354131°199km/h991m-1.2m/s-44.2°C2.0%16.7hPa2.7V00:00:0001:55:0700:00:00
PETON7-102026-09-03 12:49:52-12.03139-77.04523119°199km/h992m-0.9m/s-43.9°C2.0%16.3hPa2.7V00:00:0000:00:0000:00:00
PETON7-102026-09-03 12:49:49-12.03078-77.04664109°199km/h992m-0.1m/s-43.9°C2.0%15.9hPa2.7V00:00:0000:00:0000:00:00
PETON7-102026-09-03 12:49:34-12.03148-77.0541061°199km/h990m-0.4m/s-42.4°C1.8%14.5hPa2.7V00:00:0001:54:4500:00:00
SQ9EZE-142026-09-03 12:49:33-12.03148-77.0541061°201km/h990m-0.5m/s0°C0%0hPa2.7V00:00:0000:00:0000:00:00
PETON7-102026-09-03 12:49:29-12.03301-77.0561345°199km/h991m-1.0m/s-42.2°C1.7%14.0hPa2.7V00:00:0000:00:0000:00:00
PETON7-102026-09-03 12:49:25-12.03460-77.0573932°199km/h991m-0.7m/s-42.1°C1.7%13.6hPa2.7V00:00:0000:00:0000:00:00
PETON7-102026-09-03 12:49:24-12.03504-77.0576429°199km/h991m-0.5m/s-42.1°C1.7%13.5hPa2.7V00:00:0001:54:3500:00:00
OE5DRO-102026-09-03 12:49:18-12.03790-77.0586310°199km/h989m-0.4m/s-42.1°C1.8%13.0hPa2.7V00:00:0000:00:0008:30:00
PETON7-102026-09-03 12:49:18-12.03790-77.0586310°199km/h989m-0.4m/s-42.1°C1.8%13.0hPa2.7V00:00:0000:00:0008:30:00
OE3JTB-152026-09-03 12:49:10-12.04286-77.05802337°199km/h990m-1.2m/s-41.5°C1.8%12.0hPa2.7V00:00:0001:54:1900:00:00
OE5DRO-102026-09-03 12:49:08-12.04286-77.05802337°199km/h990m-1.2m/s-41.5°C1.8%12.0hPa2.7V00:00:0000:00:0000:00:00
PETON7-102026-09-03 12:49:08-12.04286-77.05802337°199km/h990m-1.2m/s-41.5°C1.8%12.0hPa2.7V00:00:0000:00:0000:00:00
OE3JTB-152026-09-03 12:49:05-12.04502-77.05670321°199km/h990m-1.4m/s-40.8°C1.7%11.6hPa2.7V00:00:0000:00:0008:30:00
OE5DRO-102026-09-03 12:49:03-12.04502-77.05670321°199km/h990m-1.4m/s-40.8°C1.7%11.6hPa2.6V00:00:0000:00:0000:00:00
PETON7-102026-09-03 12:49:03-12.04502-77.05670321°199km/h990m-1.4m/s-40.8°C1.7%11.6hPa2.6V00:00:0001:54:1400:00:00
OE5DRO-102026-09-03 12:49:01-12.04577-77.05601315°199km/h991m-0.4m/s-40.1°C1.6%11.4hPa2.6V00:00:0000:00:0000:00:00
PETON7-102026-09-03 12:49:01-12.04577-77.05601315°199km/h991m-0.4m/s-40.1°C1.6%11.4hPa2.6V00:00:0000:00:0000:00:00
OE3JTB-152026-09-03 12:48:55-12.04789-77.05254289°199km/h990m0.1m/s-39.8°C1.6%10.7hPa2.6V00:00:0001:54:0400:00:00
GYPAP8-172026-09-03 12:48:53-12.04771-77.05302293°203km/h990m0.1m/s-39.7°C0%10.8hPa2.6V00:00:0000:00:0000:00:00
OE5DRO-102026-09-03 12:48:48-12.04837-77.05002273°199km/h989m-0.8m/s-39.8°C1.6%10.4hPa2.6V00:00:0000:00:0000:00:00
PETON7-102026-09-03 12:48:48-12.04837-77.05002273°199km/h989m-0.8m/s-39.8°C1.6%10.4hPa2.6V00:00:0000:00:0000:00:00
OE5DRO-102026-09-03 12:48:40-12.04768-77.04601248°199km/h991m-0.6m/s-38.7°C1.5%9.8hPa2.6V00:00:0000:00:0000:00:00
PETON7-102026-09-03 12:48:40-12.04768-77.04601248°199km/h991m-0.6m/s-38.7°C1.5%9.8hPa2.6V00:00:0001:53:5100:00:00
OE5DRO-102026-09-03 12:48:37-12.04698-77.04464238°199km/h991m-1.1m/s-38.5°C1.5%9.6hPa2.6V00:00:0000:00:0000:00:00
PETON7-102026-09-03 12:48:37-12.04698-77.04464238°199km/h991m-1.1m/s-38.5°C1.5%9.6hPa2.6V00:00:0000:00:0000:00:00
OE5DRO-102026-09-03 12:48:28-12.04369-77.04151209°199km/h990m-0.5m/s-38.0°C1.5%8.9hPa2.6V00:00:0000:00:0000:00:00
PETON7-102026-09-03 12:48:28-12.04369-77.04151209°199km/h990m-0.5m/s-38.0°C1.5%8.9hPa2.6V00:00:0000:00:0000:00:00
OE5DRO-102026-09-03 12:48:26-12.04277-77.04107203°199km/h991m-0.5m/s-38.0°C1.5%8.8hPa2.6V00:00:0000:00:0000:00:00
PETON7-102026-09-03 12:48:26-12.04277-77.04107203°199km/h991m-0.5m/s-38.0°C1.5%8.8hPa2.6V00:00:0001:53:3700:00:00
PETON7-102026-09-03 12:48:18-12.03881-77.04041177°199km/h989m-0.4m/s-36.9°C1.4%8.3hPa2.6V00:00:0000:00:0008:30:00
OE5DRO-102026-09-03 12:48:17-12.03831-77.04045174°199km/h989m-0.9m/s-36.5°C1.3%8.2hPa2.7V00:00:0000:00:0008:30:00
PETON7-102026-09-03 12:48:17-12.03831-77.04045174°197km/h989m-0.9m/s-36.5°C1.3%8.2hPa2.7V00:00:0000:00:0000:00:00
PETON7-102026-09-03 12:48:14-12.03683-77.04075164°199km/h990m-0.5m/s-35.9°C1.3%8.0hPa2.7V00:00:0001:53:2500:00:00
PETON7-102026-09-03 12:48:10-12.03496-77.04154151°199km/h991m-0.4m/s-34.8°C1.2%7.8hPa2.7V00:00:0000:00:0000:00:00
PETON7-102026-09-03 12:48:08-12.03411-77.04209145°199km/h991m-0.4m/s-34.6°C1.1%7.7hPa2.7V00:00:0000:00:0000:00:00
PETON7-102026-09-03 12:47:58-12.03100-77.04606113°199km/h992m-0.0m/s-35.2°C1.2%7.1hPa2.7V00:00:0001:53:0900:00:00
OE3JTB-152026-09-03 12:47:49-12.03054-77.0516078°199km/h990m-0.0m/s-35.4°C1.2%7.1hPa2.7V00:00:0000:00:0000:00:00
PETON7-102026-09-03 12:47:43-12.03121-77.0535465°199km/h990m0.3m/s-35.3°C1.2%7.1hPa2.6V00:00:0000:00:0000:00:00
PETON7-102026-09-03 12:47:28-12.03683-77.0583817°199km/h989m0.6m/s-35.0°C1.2%7.2hPa2.7V00:00:0000:00:0000:00:00
GYPAP8-172026-09-03 12:47:23-12.03882-77.05873199km/h989m0.1m/s-35.1°C0%7.3hPa2.7V00:00:0000:00:0000:00:00
PETON7-102026-09-03 12:47:12-12.04454-77.05708325°199km/h986m-1.0m/s-34.9°C1.2%7.3hPa2.7V00:00:0001:52:2300:00:00
PETON7-102026-09-03 12:47:09-12.04571-77.05609316°199km/h986m-0.8m/s-34.9°C1.2%7.3hPa2.7V00:00:0000:00:0008:30:00
PETON7-102026-09-03 12:47:02-12.04767-77.05313293°197km/h988m-3.2m/s-35.0°C1.1%7.4hPa2.7V00:00:0000:00:0000:00:00
PETON7-102026-09-03 12:47:00-12.04801-77.05216287°199km/h990m-1.0m/s-35.0°C1.2%7.4hPa2.7V00:00:0001:52:1100:00:00
PETON7-102026-09-03 12:46:59-12.04814-77.05167284°199km/h990m-0.0m/s-35.0°C1.2%7.4hPa2.7V00:00:0000:00:0000:00:00
OE3JTB-152026-09-03 12:46:53-12.04816-77.04759258°69km/h989m-0.0m/s-35.1°C1.1%7.5hPa2.7V00:00:0000:00:0000:00:00
OE5DRO-102026-09-03 12:46:46-12.04728-77.04519242°199km/h991m-0.7m/s-35.0°C1.2%7.5hPa2.7V00:00:0000:00:0000:00:00
OE5DRO-102026-09-03 12:46:44-12.04675-77.04431235°199km/h991m-0.5m/s-35.0°C1.2%7.6hPa2.7V00:00:0000:00:0000:00:00
PETON7-102026-09-03 12:46:44-12.04675-77.04431235°199km/h991m-0.5m/s-35.0°C1.2%7.6hPa2.7V00:00:0000:00:0000:00:00
OE5DRO-102026-09-03 12:46:33-12.04238-77.04095200°199km/h990m-0.6m/s-35.2°C1.1%7.6hPa2.7V00:00:0000:00:0000:00:00
PETON7-102026-09-03 12:46:33-12.04238-77.04095200°199km/h990m-0.6m/s-35.2°C1.1%7.6hPa2.6V00:00:0001:51:4400:00:00
OE5DRO-102026-09-03 12:46:31-12.04141-77.04066194°197km/h989m-1.3m/s-35.4°C1.1%7.6hPa2.6V00:00:0000:00:0000:00:00
PETON7-102026-09-03 12:46:31-12.04141-77.04066194°197km/h989m-1.3m/s-35.4°C1.1%7.6hPa2.6V00:00:0000:00:0000:00:00
PETON7-102026-09-03 12:46:30-12.04091-77.04055191°199km/h989m0.0m/s-35.5°C1.2%7.7hPa2.7V00:00:0000:00:0000:00:00
OE5DRO-102026-09-03 12:46:29-12.04041-77.04047188°199km/h989m0.1m/s-35.6°C1.2%7.6hPa2.7V00:00:0000:00:0000:00:00
PETON7-102026-09-03 12:46:15-12.03376-77.04236143°199km/h992m-0.5m/s-36.3°C1.2%7.8hPa2.7V00:00:0001:51:2600:00:00
OE5DRO-102026-09-03 12:46:10-12.03200-77.04422126°150km/h992m-0.1m/s-36.4°C1.2%7.8hPa2.7V00:00:0000:00:0000:00:00
GYPAP8-172026-09-03 12:46:08-12.03171-77.04465124°199km/h992m0.1m/s-36.6°C0%7.9hPa2.7V00:00:0000:00:0000:00:00
GYPAP8-172026-09-03 12:44:56-17.43301-51.773170km/h569m0.0m/s-38.6°C0%8.5hPa2.7V00:00:0000:00:0000:00:00
GYPAP8-172026-09-03 12:43:50-10.68071-74.707290km/h782m0.0m/s-39.3°C0%9.1hPa2.7V00:00:0000:00:0000:00:00
GYPAP8-172026-09-03 12:42:4247.1344419.715590km/h30329m0.0m/s-39.5°C0%9.8hPa2.7V00:00:0000:00:0000:00:00
GYPAP8-172026-09-03 12:41:2747.1344419.715590km/h30329m0.0m/s-40.0°C0%10.6hPa2.7V00:00:0000:00:0000:00:00
GYPAP8-172026-09-03 12:40:2347.1344419.715590km/h30329m0.0m/s-41.4°C0%11.3hPa2.7V00:00:0000:00:0000:00:00
LZ4TU-52026-09-03 12:39:2647.1344419.715590km/h30329m0.0m/s-41.9°C0%0hPa2.7V00:00:0000:00:0000:00:00
LZ4TU-52026-09-03 12:39:2147.1344419.715590km/h30329m0.0m/s-42.2°C0%0hPa2.7V00:00:0000:00:0000:00:00
GYPAP8-172026-09-03 12:39:1947.1344419.715590km/h30329m0.0m/s-42.2°C0%12.1hPa2.7V00:00:0000:00:0000:00:00
PETON7-102026-09-03 12:38:5147.1332719.7123547°16km/h30182m8.5m/s-42.5°C1.8%12.4hPa2.7V00:00:0000:00:0000:00:00
PETON7-102026-09-03 12:38:3647.1330519.71161217°11km/h30072m3.5m/s-42.5°C1.8%12.5hPa2.6V00:00:0000:00:0000:00:00
PETON7-102026-09-03 12:38:2147.1328019.71139107°13km/h29975m6.3m/s-42.3°C1.8%12.8hPa2.6V00:00:0001:43:3300:00:00
OE5DRO-102026-09-03 12:38:1547.1327119.71145323°9km/h29932m8.9m/s-42.3°C1.7%12.8hPa2.6V00:00:0000:00:0000:00:00
OE5DXL-152026-09-03 12:38:1347.1325919.7114544°11km/h29905m10.1m/s0°C0%0hPa2.6V00:00:0000:00:0000:00:00
GYPAP8-172026-09-03 12:38:1047.1325919.7114545°18km/h29905m10.2m/s-42.3°C0%12.9hPa2.6V00:00:0000:00:0000:00:00
PETON7-102026-09-03 12:38:0647.1324919.7111598°7km/h29869m5.1m/s-42.3°C1.8%13.0hPa2.6V00:00:0000:00:0008:30:00
OE5DRO-102026-09-03 12:37:5647.1324719.7112384°15km/h29799m8.0m/s-42.8°C1.8%13.1hPa2.6V00:00:0000:00:0000:00:00
PETON7-102026-09-03 12:37:5147.1324719.71099105°13km/h29765m5.3m/s-43.0°C1.9%13.2hPa2.6V00:00:0000:00:0000:00:00
OE5DXL-152026-09-03 12:37:4047.1327119.71135201°11km/h29687m5.7m/s0°C0%0hPa2.6V00:00:0000:00:0000:00:00
OE5DRO-102026-09-03 12:37:3747.1327419.7112982°13km/h29664m6.5m/s-42.6°C1.8%13.3hPa2.6V00:00:0000:00:0008:30:00
PETON7-102026-09-03 12:37:3647.1327319.7112663°11km/h29657m6.2m/s-42.7°C1.8%13.4hPa2.7V00:00:0001:42:4800:00:00
PETON7-102026-09-03 12:37:2147.1330219.71134139°16km/h29554m7.2m/s-42.7°C1.8%13.6hPa2.7V00:00:0000:00:0000:00:00
OE5DRO-102026-09-03 12:37:1447.1332919.71150207°18km/h29506m8.9m/s-42.7°C1.8%13.7hPa2.7V00:00:0000:00:0000:00:00
OE5DXL-152026-09-03 12:37:1047.1334519.71146127°22km/h29467m9.7m/s0°C0%0hPa2.7V00:00:0000:00:0000:00:00
PETON7-102026-09-03 12:37:0647.1335219.71129134°22km/h29445m7.4m/s-42.5°C1.8%13.8hPa2.7V00:00:0000:00:0000:00:00
GYPAP8-172026-09-03 12:37:0447.1335619.71125157°20km/h29437m8.7m/s-42.6°C0%13.9hPa2.7V00:00:0000:00:0000:00:00
OE5DRO-102026-09-03 12:36:5547.1340719.71111135°26km/h29363m8.1m/s-42.3°C1.7%14.0hPa2.7V00:00:0000:00:0000:00:00
PETON7-102026-09-03 12:36:5147.1342319.71085135°26km/h29332m9.2m/s-42.4°C1.8%14.0hPa2.7V00:00:0001:42:0300:00:00
OE5DXL-152026-09-03 12:36:4047.1347519.7100393°24km/h29240m4.5m/s0°C0%0hPa2.7V00:00:0000:00:0000:00:00
PETON7-102026-09-03 12:36:3647.1347719.70983107°24km/h29226m8.5m/s-43.0°C1.8%14.3hPa2.7V00:00:0000:00:0000:00:00
PETON7-102026-09-03 12:36:2147.1351919.70864133°26km/h29117m6.3m/s-43.1°C1.9%14.4hPa2.7V00:00:0000:00:0000:00:00
OE5DRO-102026-09-03 12:36:1747.1354019.70838146°26km/h29079m9.4m/s-43.1°C1.8%14.5hPa2.7V00:00:0000:00:0000:00:00
OE5DXL-152026-09-03 12:36:1047.1356719.7076698°26km/h29021m6.8m/s0°C0%0hPa2.7V00:00:0000:00:0008:30:00
PETON7-102026-09-03 12:36:0647.1356819.7074691°26km/h29007m8.4m/s-43.0°C1.8%14.7hPa2.7V00:00:0001:41:1800:00:00
GYPAP8-172026-09-03 12:36:0147.1357019.7071693°16km/h28978m7.5m/s-43.2°C0%14.9hPa2.7V00:00:0000:00:0000:00:00
OE5DRO-102026-09-03 12:35:5847.1357319.7066392°27km/h28935m8.2m/s-43.1°C1.8%14.9hPa2.7V00:00:0000:00:0000:00:00
PETON7-102026-09-03 12:35:5147.1356819.7061662°22km/h28901m8.0m/s-43.1°C1.9%15.0hPa2.7V00:00:0000:00:0008:30:00
OE5DRO-102026-09-03 12:35:3847.1356119.7051288°24km/h28807m5.9m/s-43.6°C1.9%15.2hPa2.6V00:00:0000:00:0000:00:00
PETON7-102026-09-03 12:35:3647.1355819.7049568°22km/h28792m9.1m/s-43.7°C1.9%15.2hPa2.6V00:00:0000:00:0000:00:00
PETON7-102026-09-03 12:35:0647.1352919.7030250°13km/h28587m8.1m/s-43.8°C1.9%15.7hPa2.6V00:00:0000:00:0000:00:00
OE5DXL-152026-09-03 12:35:0447.1352519.7029283°13km/h28566m9.0m/s0°C0%0hPa2.6V00:00:0000:00:0000:00:00
GYPAP8-172026-09-03 12:34:5747.1352119.70276117°5km/h28531m6.6m/s-43.7°C0%15.9hPa2.6V00:00:0000:00:0000:00:00
PETON7-102026-09-03 12:34:5147.1351619.7024272°15km/h28481m6.7m/s-43.6°C1.9%16.0hPa2.6V00:00:0000:00:0000:00:00
OE5DXL-152026-09-03 12:34:3347.1351019.70146129°18km/h28348m6.0m/s0°C0%0hPa2.6V00:00:0000:00:0000:00:00
OE5DRO-102026-09-03 12:34:3147.1351719.70133124°20km/h28333m7.7m/s-44.1°C2.0%16.3hPa2.6V00:00:0000:00:0000:00:00
PETON7-102026-09-03 12:34:2147.1353819.70084101°16km/h28278m5.7m/s-44.1°C2.0%16.4hPa2.6V00:00:0000:00:0000:00:00
PETON7-102026-09-03 12:34:0647.1357619.70014132°18km/h28174m8.5m/s-44.2°C1.9%16.7hPa2.7V00:00:0000:00:0000:00:00
OE5DRO-102026-09-03 12:34:0447.1358519.70003145°15km/h28159m5.3m/s0°C0%0hPa2.7V00:00:0000:00:0000:00:00
OE5DXL-152026-09-03 12:34:0347.1359319.69992129°27km/h28149m5.5m/s0°C0%0hPa2.7V00:00:0000:00:0000:00:00
GYPAP8-172026-09-03 12:33:5547.1359819.6996399°18km/h28105m8.1m/s-44.4°C0%16.9hPa2.7V00:00:0000:00:0000:00:00
PETON7-102026-09-03 12:33:5147.1360719.69928144°20km/h28069m6.7m/s-44.3°C1.9%17.0hPa2.7V00:00:0001:39:0300:00:00
OE5DRO-102026-09-03 12:33:4547.1363419.69891127°33km/h28030m5.4m/s0°C0%0hPa2.7V00:00:0000:00:0008:30:00
PETON7-102026-09-03 12:33:3647.1365119.69837117°35km/h27964m8.8m/s-45.3°C2.1%17.2hPa2.7V00:00:0000:00:0008:30:00
PETON7-102026-09-03 12:33:2147.1371219.69672111°33km/h27858m7.0m/s-45.2°C2.0%17.5hPa2.7V00:00:0000:00:0000:00:00
OE5DRO-102026-09-03 12:33:1947.1372019.69647119°29km/h27844m7.7m/s0°C0%0hPa2.7V00:00:0000:00:0000:00:00
PETON7-102026-09-03 12:33:0647.1376419.69507101°29km/h27758m6.2m/s-45.8°C2.1%17.8hPa2.7V00:00:0001:38:1800:00:00
OE5DRO-102026-09-03 12:33:0047.1377919.69466122°26km/h27718m6.7m/s0°C0%0hPa2.7V00:00:0000:00:0000:00:00
PETON7-102026-09-03 12:32:5147.1379919.6936794°27km/h27656m7.0m/s-46.0°C2.1%18.1hPa2.7V00:00:0000:00:0000:00:00
OE5DRO-102026-09-03 12:32:4147.1381819.69264109°27km/h27589m5.3m/s0°C0%0hPa2.7V00:00:0000:00:0000:00:00
PETON7-102026-09-03 12:32:3647.1382519.6921391°24km/h27554m9.5m/s-46.4°C2.2%18.3hPa2.7V00:00:0000:00:0000:00:00
OE5DRO-102026-09-03 12:32:2247.1383419.69097101°24km/h27464m5.6m/s0°C0%0hPa2.7V00:00:0000:00:0000:00:00
PETON7-102026-09-03 12:32:2147.1383419.69090101°22km/h27457m9.3m/s-46.7°C2.2%18.6hPa2.7V00:00:0001:37:3300:00:00
PETON7-102026-09-03 12:32:0647.1383719.68976146°18km/h27357m7.5m/s-47.0°C2.3%18.9hPa2.7V00:00:0000:00:0000:00:00
OE5DRO-102026-09-03 12:32:0347.1385019.68962131°18km/h27339m8.7m/s0°C0%0hPa2.6V00:00:0000:00:0000:00:00
GYPAP8-172026-09-03 12:31:5147.1384819.68896111°18km/h27265m4.5m/s-47.0°C0%19.2hPa2.6V00:00:0000:00:0000:00:00
PETON7-102026-09-03 12:31:3647.1384819.6874377°27km/h27161m8.0m/s-46.6°C2.2%19.4hPa2.6V00:00:0001:36:4800:00:00
PETON7-102026-09-03 12:31:2047.1382019.6859364°26km/h27056m7.0m/s-46.3°C2.1%19.8hPa2.6V00:00:0000:00:0008:30:00
PETON7-102026-09-03 12:31:0547.1377519.6847469°22km/h26955m4.9m/s-46.7°C2.3%20.1hPa2.6V00:00:0000:00:0000:00:00
PETON7-102026-09-03 12:30:5047.1372419.6838179°13km/h26854m6.1m/s-46.3°C2.1%20.4hPa2.6V00:00:0001:36:0200:00:00
GYPAP8-172026-09-03 12:30:4547.1372219.6836486°11km/h26828m7.6m/s-46.3°C0%20.5hPa2.6V00:00:0000:00:0000:00:00
PETON7-102026-09-03 12:30:3547.1369319.6833674°11km/h26757m7.7m/s-46.6°C2.2%20.7hPa2.6V00:00:0000:00:0000:00:00
PETON7-102026-09-03 12:30:2047.1368519.6830341°15km/h26655m7.1m/s-46.9°C2.2%21.0hPa2.6V00:00:0000:00:0000:00:00
OE5DRO-102026-09-03 12:30:1147.1366419.6825137°15km/h26576m6.3m/s0°C0%0hPa2.6V00:00:0000:00:0000:00:00
PETON7-102026-09-03 12:30:0547.1365819.6824091°15km/h26550m5.2m/s-47.2°C2.2%21.3hPa2.6V00:00:0001:35:1700:00:00
OE5DXL-152026-09-03 12:29:5547.1364019.6817379°15km/h26460m8.3m/s0°C0%0hPa2.6V00:00:0000:00:0000:00:00
OE5DRO-102026-09-03 12:29:5247.1363919.6816676°26km/h26447m5.7m/s0°C0%0hPa2.6V00:00:0000:00:0000:00:00
PETON7-102026-09-03 12:29:5047.1363919.6816676°20km/h26447m5.7m/s-47.5°C2.3%21.7hPa2.6V00:00:0000:00:0000:00:00
GYPAP8-172026-09-03 12:29:4247.1362419.6810676°20km/h26393m8.2m/s-47.5°C0.0%21.9hPa2.7V00:00:0000:00:0000:00:00
PETON7-102026-09-03 12:29:3547.1361219.6806636°22km/h26346m7.0m/s-47.3°C2.3%22.0hPa2.7V00:00:0000:00:0000:00:00
OE5DRO-102026-09-03 12:29:3247.1358819.6804042°26km/h26318m6.8m/s0°C0%0hPa2.7V00:00:0000:00:0000:00:00
PETON7-102026-09-03 12:29:2047.1355619.6798110°29km/h26241m9.5m/s-47.3°C2.3%22.4hPa2.7V00:00:0001:34:3200:00:00
OE5DRO-102026-09-03 12:29:1247.1349919.6791638°20km/h26183m5.0m/s0°C0%0hPa2.7V00:00:0000:00:0000:00:00
PETON7-102026-09-03 12:29:0547.1346619.6791410°20km/h26141m6.8m/s-47.9°C2.4%22.7hPa2.7V00:00:0000:00:0008:30:00
PETON7-102026-09-03 12:28:5047.1340519.6785757°15km/h26039m4.5m/s-47.7°C2.3%23.0hPa2.6V00:00:0000:00:0000:00:00
GYPAP8-172026-09-03 12:28:4947.1340519.6785757°16km/h26039m4.6m/s-47.8°C0.0%23.0hPa2.6V00:00:0000:00:0000:00:00
PETON7-102026-09-03 12:28:3547.1337119.6780091°13km/h25938m8.4m/s-48.0°C2.3%23.4hPa2.6V00:00:0001:33:4700:00:00
OE5DXL-152026-09-03 12:28:3047.1336419.6777326°16km/h25892m7.4m/s0°C0%0hPa2.6V00:00:0000:00:0000:00:00
PETON7-102026-09-03 12:28:2047.1334819.6775356°15km/h25841m7.6m/s-48.2°C2.4%23.8hPa2.6V00:00:0000:00:0000:00:00
PETON7-102026-09-03 12:28:0547.1331419.6769267°13km/h25744m5.3m/s-48.2°C2.4%24.1hPa2.7V00:00:0000:00:0000:00:00
OE5DXL-152026-09-03 12:27:5647.1329319.6764442°13km/h25663m8.4m/s0°C0%0hPa2.7V00:00:0001:33:0500:00:00
PETON7-102026-09-03 12:27:4947.1329019.6762882°9km/h25636m9.0m/s-48.8°C2.5%24.5hPa2.7V00:00:0001:33:0100:00:00
GYPAP8-172026-09-03 12:27:4847.1329019.6762882°11km/h25636m9.1m/s-48.9°C0.0%24.6hPa2.7V00:00:0000:00:0000:00:00
ATIDSZ-142026-09-03 12:27:4347.1328519.6760478°16km/h25604m4.4m/s-48.8°C0.0%24.7hPa2.7V00:00:0000:00:0000:00:00
PETON7-102026-09-03 12:27:3447.1327519.6758822°15km/h25538m5.8m/s-48.6°C2.5%24.9hPa2.7V00:00:0000:00:0000:00:00
OE5DXL-152026-09-03 12:27:2447.1323719.6756046°13km/h25458m7.5m/s0°C0%0hPa2.7V00:00:0000:00:0000:00:00
PETON7-102026-09-03 12:27:1947.1323219.6755261°15km/h25438m4.3m/s-48.7°C2.4%25.2hPa2.7V00:00:0000:00:0000:00:00
ATIDSZ-142026-09-03 12:27:1247.1320819.6752732°16km/h25396m6.5m/s-48.9°C0.0%25.5hPa2.7V00:00:0000:00:0000:00:00
PETON7-102026-09-03 12:27:0447.1319019.6750379°7km/h25336m8.2m/s-49.2°C2.5%25.7hPa2.7V00:00:0001:32:1600:00:00
ATIDSZ-142026-09-03 12:26:5147.1317219.67496320°4km/h25254m7.9m/s-49.5°C0.0%26.1hPa2.7V00:00:0000:00:0000:00:00
PETON7-102026-09-03 12:26:4947.1317219.67495106°7km/h25232m6.7m/s-49.5°C2.5%26.1hPa2.7V00:00:0000:00:0008:30:00
GYPAP8-172026-09-03 12:26:4147.1317219.67485298°4km/h25183m9.1m/s-49.5°C0.0%26.4hPa2.6V00:00:0000:00:0000:00:00
PETON7-102026-09-03 12:26:3447.1315919.6748720°9km/h25130m4.2m/s-49.6°C2.6%26.5hPa2.6V00:00:0000:00:0000:00:00
ATIDSZ-142026-09-03 12:26:2847.1315019.67486334°7km/h25098m6.8m/s-49.7°C0.0%26.7hPa2.6V00:00:0000:00:0000:00:00
PETON7-102026-09-03 12:26:1947.1312619.6749311°13km/h25030m5.7m/s-49.8°C2.7%26.9hPa2.6V00:00:0001:31:3100:00:00
ATIDSZ-142026-09-03 12:26:0847.1310319.67523334°13km/h24963m6.9m/s-49.8°C0.1%27.2hPa2.6V00:00:0000:00:0000:00:00
PETON7-102026-09-03 12:26:0447.1308719.6752112°13km/h24929m6.3m/s-49.6°C2.6%27.3hPa2.6V00:00:0000:00:0000:00:00
PETON7-102026-09-03 12:25:4847.1304319.6754733°16km/h24826m6.9m/s-49.3°C2.5%27.7hPa2.6V00:00:0000:00:0000:00:00
ATIDSZ-142026-09-03 12:25:4647.1304019.6754534°15km/h24820m5.6m/s-49.4°C0.0%27.8hPa2.6V00:00:0000:00:0000:00:00
GYPAP8-172026-09-03 12:25:3947.1301419.67551309°20km/h24774m6.6m/s-49.5°C0.0%28.0hPa2.6V00:00:0000:00:0000:00:00
PETON7-102026-09-03 12:25:3347.1299719.67587328°18km/h24728m5.5m/s-49.7°C2.6%28.2hPa2.6V00:00:0001:30:4500:00:00
ATIDSZ-142026-09-03 12:25:2347.1297019.67625286°20km/h24669m7.1m/s-50.0°C0.0%28.5hPa2.6V00:00:0000:00:0000:00:00
PETON7-102026-09-03 12:25:1847.1296219.67663313°16km/h24629m6.5m/s-49.8°C2.6%28.6hPa2.6V00:00:0000:00:0000:00:00
PETON7-102026-09-03 12:25:0347.1296819.67750240°15km/h24525m6.0m/s-49.6°C2.6%29.1hPa2.7V00:00:0000:00:0000:00:00
ATIDSZ-142026-09-03 12:25:0247.1296819.67750241°9km/h24525m6.1m/s-49.7°C0.0%29.1hPa2.7V00:00:0000:00:0000:00:00
PETON7-102026-09-03 12:24:4847.1300619.67800125°15km/h24425m7.0m/s-49.8°C2.6%29.5hPa2.7V00:00:0001:30:0000:00:00
ATIDSZ-142026-09-03 12:24:4247.1301819.67775136°22km/h24392m5.5m/s-49.9°C0.1%29.7hPa2.7V00:00:0000:00:0000:00:00
GYPAP8-172026-09-03 12:24:3747.1303119.67766213°13km/h24359m6.6m/s-49.9°C0.0%29.9hPa2.7V00:00:0000:00:0000:00:00
PETON7-102026-09-03 12:24:3347.1303919.67784237°13km/h24327m6.2m/s-50.0°C2.6%30.0hPa2.7V00:00:0000:00:0008:30:00
ATIDSZ-142026-09-03 12:24:2147.1306719.67773198°13km/h24257m7.6m/s-50.2°C0.1%30.4hPa2.7V00:00:0000:00:0000:00:00
PETON7-102026-09-03 12:24:1847.1308219.67782183°15km/h24231m5.9m/s-50.3°C2.6%30.4hPa2.7V00:00:0000:00:0000:00:00
PETON7-102026-09-03 12:24:0347.1312119.67734116°16km/h24133m5.2m/s-50.5°C2.6%30.9hPa2.7V00:00:0001:29:1500:00:00
ATIDSZ-142026-09-03 12:24:0147.1312319.67729115°18km/h24127m7.9m/s-50.6°C0.1%30.9hPa2.7V00:00:0000:00:0000:00:00
PETON7-102026-09-03 12:23:4847.1311919.6765546°16km/h24044m7.8m/s-50.8°C2.6%31.3hPa2.7V00:00:0000:00:0000:00:00
ATIDSZ-142026-09-03 12:23:4047.1310819.6762042°16km/h23999m5.4m/s-51.1°C0.1%31.6hPa2.6V00:00:0000:00:0000:00:00
GYPAP8-172026-09-03 12:23:3647.1308719.6760832°18km/h23968m5.2m/s-51.3°C0.1%31.7hPa2.6V00:00:0000:00:0000:00:00
PETON7-102026-09-03 12:23:3347.1307619.6759829°11km/h23949m7.3m/s-51.4°C2.7%31.8hPa2.6V00:00:0000:00:0000:00:00
PETON7-102026-09-03 12:23:1847.1306019.67623235°4km/h23856m6.3m/s-51.7°C2.8%32.2hPa2.6V00:00:0001:28:3000:00:00
ATIDSZ-142026-09-03 12:23:1747.1306019.67623236°5km/h23856m6.4m/s-51.8°C0.1%32.2hPa2.6V00:00:0000:00:0000:00:00
PETON7-102026-09-03 12:23:0347.1306519.67611112°9km/h23761m5.4m/s-51.9°C2.8%32.7hPa2.6V00:00:0000:00:0000:00:00
ATIDSZ-142026-09-03 12:22:5647.1306819.6760168°7km/h23722m5.4m/s-52.1°C0.1%33.0hPa2.7V00:00:0000:00:0000:00:00
PETON7-102026-09-03 12:22:4847.1306019.6756559°13km/h23665m8.1m/s-52.4°C3.0%33.2hPa2.7V00:00:0000:00:0000:00:00
ATIDSZ-142026-09-03 12:22:3647.1302519.67581359°20km/h23592m6.5m/s-52.6°C0.1%33.6hPa2.7V00:00:0000:00:0000:00:00
PETON7-102026-09-03 12:22:3347.1301719.6757899°7km/h23564m8.0m/s-52.5°C3.0%33.7hPa2.7V00:00:0001:27:4500:00:00
GYPAP8-172026-09-03 12:22:3147.1301719.67576136°5km/h23558m4.9m/s-52.6°C0.1%33.8hPa2.7V00:00:0000:00:0000:00:00
ATIDSZ-142026-09-03 12:22:1647.1302119.67608216°18km/h23457m7.3m/s-52.5°C0.1%34.3hPa2.7V00:00:0000:00:0000:00:00
PETON7-102026-09-03 12:22:0347.1302419.67654215°11km/h23371m4.2m/s-52.4°C3.0%34.8hPa2.7V00:00:0000:00:0000:00:00
ATIDSZ-142026-09-03 12:21:5447.1303719.6764017°7km/h23321m7.4m/s-52.3°C0.1%35.1hPa2.7V00:00:0000:00:0000:00:00
PETON7-102026-09-03 12:21:4847.1304419.67648175°9km/h23275m5.1m/s-52.1°C2.9%35.3hPa2.7V00:00:0001:27:0000:00:00
ATIDSZ-142026-09-03 12:21:3447.1303519.67644239°7km/h23186m4.4m/s-52.1°C0.1%35.8hPa2.7V00:00:0000:00:0000:00:00
PETON7-102026-09-03 12:21:3347.1303719.67648220°9km/h23173m8.6m/s-52.1°C2.9%35.9hPa2.7V00:00:0000:00:0000:00:00
GYPAP8-172026-09-03 12:21:2747.1303219.6763932°16km/h23143m7.2m/s-52.1°C0.1%36.1hPa2.7V00:00:0000:00:0000:00:00
PETON7-102026-09-03 12:21:1847.1300319.6762622km/h23078m6.9m/s-51.9°C3.0%36.4hPa2.7V00:00:0000:00:0000:00:00
PETON7-102026-09-03 12:21:0347.1291919.67609358°31km/h22982m7.5m/s-51.4°C2.8%36.9hPa2.7V00:00:0001:26:1500:00:00
ATIDSZ-142026-09-03 12:20:5447.1284819.6759331km/h22923m6.0m/s-51.1°C0.1%37.3hPa2.7V00:00:0000:00:0000:00:00
PETON7-102026-09-03 12:20:4847.1280419.67595352°29km/h22886m6.2m/s-50.9°C2.7%37.4hPa2.7V00:00:0000:00:0000:00:00
PETON7-102026-09-03 12:20:3347.1269719.67599338°18km/h22788m9.1m/s-51.1°C2.7%38.0hPa2.6V00:00:0000:00:0000:00:00
PETON7-102026-09-03 12:20:1847.1263219.67617337°16km/h22695m6.8m/s-51.7°C2.8%38.6hPa2.6V00:00:0001:25:3000:00:00
GYPAP8-172026-09-03 12:20:1447.1261519.67621351°18km/h22671m7.2m/s-51.8°C0.1%38.7hPa2.6V00:00:0000:00:0000:00:00
ATIDSZ-142026-09-03 12:20:1247.1261119.67623323°13km/h22665m4.1m/s-51.8°C0.1%38.8hPa2.6V00:00:0000:00:0000:00:00
PETON7-102026-09-03 12:20:0347.1261019.67675302°18km/h22604m5.7m/s-52.3°C2.9%39.1hPa2.6V00:00:0000:00:0008:30:00
ATIDSZ-142026-09-03 12:19:5247.1259919.67738259°16km/h22541m6.4m/s-52.0°C0.1%39.6hPa2.7V00:00:0000:00:0000:00:00
PETON7-102026-09-03 12:19:4847.1260619.67773250°16km/h22509m5.1m/s-51.7°C2.8%39.7hPa2.7V00:00:0000:00:0000:00:00
PETON7-102026-09-03 12:19:3347.1263019.67859214°16km/h22417m4.8m/s-52.2°C2.9%40.3hPa2.7V00:00:0001:24:4500:00:00
ATIDSZ-142026-09-03 12:19:3147.1263419.67863211°20km/h22410m7.4m/s-52.3°C0.1%40.4hPa2.7V00:00:0000:00:0000:00:00
PETON7-102026-09-03 12:19:1847.1267919.67902185°20km/h22321m4.3m/s-52.6°C3.0%40.9hPa2.7V00:00:0000:00:0000:00:00
ATIDSZ-142026-09-03 12:19:1047.1271919.67892162°27km/h22276m4.1m/s-52.7°C0.1%41.2hPa2.7V00:00:0000:00:0000:00:00
GYPAP8-172026-09-03 12:19:0947.1272519.67889161°24km/h22271m6.4m/s-52.8°C0.1%41.3hPa2.7V00:00:0000:00:0000:00:00
PETON7-102026-09-03 12:19:0147.1276119.67876162°15km/h22213m6.1m/s-52.7°C3.0%41.6hPa2.7V00:00:0000:00:0000:00:00
ATIDSZ-142026-09-03 12:18:4947.1279819.67838181°7km/h22147m5.4m/s-52.5°C0.1%42.0hPa2.7V00:00:0000:00:0000:00:00
PETON7-102026-09-03 12:18:4647.1279919.67834107°16km/h22123m5.6m/s-52.4°C2.9%42.1hPa2.7V00:00:0001:23:5800:00:00
PETON7-102026-09-03 12:18:3147.1282319.67754116°11km/h22027m6.0m/s-52.7°C3.0%42.8hPa2.7V00:00:0000:00:0000:00:00
ATIDSZ-142026-09-03 12:18:2847.1282519.67749131°9km/h22014m6.0m/s-52.7°C0.2%42.9hPa2.7V00:00:0000:00:0000:00:00
PETON7-102026-09-03 12:18:1647.1285719.67736192°18km/h21932m7.0m/s-53.3°C3.1%43.5hPa2.7V00:00:0000:00:0000:00:00
ATIDSZ-142026-09-03 12:18:0847.1288219.67702142°22km/h21881m6.5m/s-53.4°C0.2%43.8hPa2.7V00:00:0000:00:0000:00:00
GYPAP8-172026-09-03 12:18:0747.1288219.67702142°22km/h21881m6.5m/s-53.4°C0.2%43.8hPa2.7V00:00:0000:00:0000:00:00
PETON7-102026-09-03 12:18:0147.1291619.67680162°13km/h21836m6.6m/s-53.7°C3.1%44.1hPa2.7V00:00:0001:23:1300:00:00
ATIDSZ-142026-09-03 12:17:4747.1295819.67660170°7km/h21744m6.5m/s-53.9°C0.2%44.8hPa2.7V00:00:0000:00:0000:00:00
PETON7-102026-09-03 12:17:4647.1296019.67659164°11km/h21737m7.2m/s-53.8°C3.2%44.7hPa2.7V00:00:0000:00:0008:30:00
PETON7-102026-09-03 12:17:3147.1300419.67654189°18km/h21644m5.7m/s-53.6°C3.2%45.4hPa2.6V00:00:0000:00:0000:00:00
ATIDSZ-142026-09-03 12:17:2447.1303119.67655181°18km/h21608m6.5m/s-53.6°C0.2%45.7hPa2.6V00:00:0000:00:0000:00:00
PETON7-102026-09-03 12:17:1647.1307119.67642168°20km/h21555m5.1m/s-53.6°C3.2%46.0hPa2.6V00:00:0001:22:2800:00:00
ATIDSZ-142026-09-03 12:17:0447.1311819.67602145°22km/h21486m5.1m/s-53.4°C0.2%46.6hPa2.6V00:00:0000:00:0000:00:00
GYPAP8-172026-09-03 12:17:0247.1312719.67593143°22km/h21473m8.2m/s-53.3°C0.2%46.7hPa2.6V00:00:0000:00:0000:00:00
PETON7-102026-09-03 12:17:0147.1313519.67585148°29km/h21461m6.0m/s-53.2°C3.0%46.8hPa2.6V00:00:0000:00:0000:00:00
PETON7-102026-09-03 12:16:4647.1321019.67469115°29km/h21365m6.4m/s-53.8°C3.1%47.5hPa2.7V00:00:0000:00:0000:00:00
9A1FER-102026-09-03 12:16:4547.1321319.67460113°29km/h21358m7.9m/s-53.8°C3.1%47.5hPa2.7V00:00:0001:21:5700:00:00
ATIDSZ-142026-09-03 12:16:4347.1321519.67452108°24km/h21351m4.9m/s-53.8°C0.2%47.6hPa2.7V00:00:0000:00:0000:00:00
PETON7-102026-09-03 12:16:3147.1325219.67322117°24km/h21273m6.2m/s-54.4°C3.3%48.1hPa2.7V00:00:0001:21:4300:00:00
9A1FER-102026-09-03 12:16:3047.1325419.67314106°24km/h21267m5.6m/s0°C0%0hPa2.7V00:00:0001:21:4200:00:00
PETON7-102026-09-03 12:16:1647.1325619.6719291°18km/h21182m5.4m/s-54.0°C3.3%48.8hPa2.7V00:00:0000:00:0000:00:00
9A1FER-102026-09-03 12:16:1547.1325619.6718683°18km/h21175m7.2m/s0°C0%0hPa2.6V00:00:0001:21:2700:00:00
PETON7-102026-09-03 12:16:0147.1324819.67090100°15km/h21093m3.0m/s-53.3°C3.2%49.5hPa2.6V00:00:0000:00:0000:00:00
GYPAP8-172026-09-03 12:16:0047.1324919.67085102°13km/h21088m6.3m/s-53.4°C0.2%49.5hPa2.6V00:00:0000:00:0000:00:00
PETON7-102026-09-03 12:15:4647.1325619.67017129°16km/h21000m5.0m/s-52.6°C3.0%50.2hPa2.6V00:00:0001:20:5800:00:00
9A1FER-102026-09-03 12:15:4547.1325819.67014126°20km/h20994m6.4m/s0°C0%0hPa2.6V00:00:0001:20:5700:00:00
ATIDSZ-142026-09-03 12:15:4147.1326419.6699189°16km/h20967m6.7m/s-52.4°C0.1%50.5hPa2.6V00:00:0000:00:0000:00:00
PETON7-102026-09-03 12:15:3147.1328819.66939155°20km/h20903m7.2m/s-52.4°C2.9%51.0hPa2.6V00:00:0000:00:0008:30:00
ATIDSZ-142026-09-03 12:15:2047.1333019.66898153°26km/h20835m4.6m/s-52.9°C0.2%51.5hPa2.7V00:00:0000:00:0000:00:00
PETON7-102026-09-03 12:15:1747.1334719.66869105°20km/h20814m4.0m/s-53.2°C3.0%51.7hPa2.7V00:00:0000:00:0000:00:00
PETON7-102026-09-03 12:15:0147.1336419.6676475°18km/h20722m6.6m/s-53.8°C3.2%52.4hPa2.7V00:00:0001:20:1300:00:00
ATIDSZ-142026-09-03 12:14:5847.1336219.6674584°29km/h20709m5.3m/s-53.8°C0.2%52.6hPa2.7V00:00:0000:00:0000:00:00
GYPAP8-172026-09-03 12:14:5647.1336219.66726108°24km/h20698m6.0m/s-53.8°C0.2%52.7hPa2.7V00:00:0000:00:0000:00:00
PETON7-102026-09-03 12:14:4647.1336819.6667047°13km/h20632m5.0m/s-53.6°C3.2%53.2hPa2.7V00:00:0000:00:0000:00:00
ATIDSZ-142026-09-03 12:14:3747.1335819.66638126°13km/h20581m8.2m/s-53.3°C0.2%53.6hPa2.7V00:00:0000:00:0000:00:00
PETON7-102026-09-03 12:14:3147.1336619.6661180°16km/h20536m4.2m/s-53.1°C3.1%54.0hPa2.7V00:00:0000:00:0000:00:00
PETON7-102026-09-03 12:14:1647.1339319.66534105°16km/h20449m7.3m/s-52.6°C2.9%54.7hPa2.7V00:00:0001:19:2800:00:00
ATIDSZ-142026-09-03 12:14:1447.1339619.66519103°22km/h20437m5.1m/s-52.7°C0.2%54.9hPa2.7V00:00:0000:00:0000:00:00
PETON7-102026-09-03 12:14:0147.1342019.66451117°29km/h20360m7.1m/s-53.6°C3.1%55.5hPa2.7V00:00:0000:00:0000:00:00
ATIDSZ-142026-09-03 12:13:5347.1341719.6635694°31km/h20314m4.1m/s-54.1°C0.2%55.9hPa2.7V00:00:0000:00:0000:00:00
PETON7-102026-09-03 12:13:4647.1342119.6629294°18km/h20273m6.2m/s-54.4°C3.2%56.2hPa2.7V00:00:0000:00:0000:00:00
PETON7-102026-09-03 12:13:3147.1343219.66193112°18km/h20182m6.8m/s-54.7°C3.3%57.0hPa2.7V00:00:0001:18:4300:00:00
ATIDSZ-142026-09-03 12:13:2947.1343419.66187120°16km/h20176m7.1m/s-54.8°C0.3%57.1hPa2.7V00:00:0000:00:0000:00:00
LZ4TU-52026-09-03 12:13:0947.1345819.6606090°20km/h20051m5.1m/s-54.8°C0%0hPa2.7V00:00:0000:00:0000:00:00
LZ4TU-52026-09-03 12:13:0647.1345719.6602796°26km/h20029m5.7m/s-54.9°C0%0hPa2.7V00:00:0000:00:0000:00:00
ATIDSZ-142026-09-03 12:13:0547.1345719.6602796°26km/h20029m5.7m/s-54.9°C0.2%58.5hPa2.7V00:00:0000:00:0000:00:00
PETON7-102026-09-03 12:13:0147.1345219.6597269°24km/h19999m4.8m/s-54.7°C3.4%58.6hPa2.7V00:00:0000:00:0000:00:00
PETON7-102026-09-03 12:12:4647.1340719.6586661°20km/h19907m5.5m/s-54.1°C3.3%59.5hPa2.7V00:00:0001:17:5800:00:00
GYPAP8-172026-09-03 12:12:4247.1339019.6583849°24km/h19882m6.6m/s-54.1°C0.2%59.8hPa2.7V00:00:0000:00:0000:00:00
ATIDSZ-142026-09-03 12:12:3847.1338219.6581865°20km/h19864m6.7m/s-54.0°C0.2%60.0hPa2.7V00:00:0000:00:0000:00:00
PETON7-102026-09-03 12:12:3147.1337119.6577152°15km/h19816m6.2m/s-54.0°C3.2%60.4hPa2.7V00:00:0000:00:0000:00:00
ATIDSZ-142026-09-03 12:12:1747.1335619.6571385°15km/h19735m5.6m/s-53.9°C0.2%61.2hPa2.7V00:00:0000:00:0000:00:00
PETON7-102026-09-03 12:12:1647.1335319.6570445°13km/h19723m6.8m/s-53.8°C3.2%61.3hPa2.7V00:00:0000:00:0000:00:00
PETON7-102026-09-03 12:12:0147.1335019.6564375°13km/h19632m7.1m/s-53.8°C3.2%62.1hPa2.7V00:00:0001:17:1300:00:00
ATIDSZ-142026-09-03 12:11:5447.1334419.6561198°11km/h19593m7.7m/s-53.8°C0.2%62.6hPa2.7V00:00:0000:00:0000:00:00
PETON7-102026-09-03 12:11:4647.1335519.6558666°13km/h19536m5.7m/s-53.8°C3.2%63.1hPa2.7V00:00:0000:00:0000:00:00
GYPAP8-172026-09-03 12:11:3947.1334919.65568114°11km/h19503m6.1m/s-53.8°C0.2%63.5hPa2.7V00:00:0000:00:0000:00:00
ATIDSZ-142026-09-03 12:11:3347.1336719.65546134°15km/h19469m6.0m/s-53.9°C0.2%63.8hPa2.7V00:00:0000:00:0000:00:00
PETON7-102026-09-03 12:11:3147.1337119.65536106°11km/h19452m5.9m/s-53.9°C3.2%63.9hPa2.7V00:00:0000:00:0000:00:00
OE3JTB-152026-09-03 12:11:2047.1338319.65492315°9km/h19364m6.0m/s-53.4°C3.2%64.8hPa2.7V00:00:0000:00:0000:00:00
PETON7-102026-09-03 12:11:1647.1338419.65492123°9km/h19359m4.8m/s-53.3°C3.2%64.8hPa2.7V00:00:0001:16:2800:00:00
ATIDSZ-142026-09-03 12:11:1247.1338819.65483118°16km/h19340m5.6m/s-53.2°C0.2%65.1hPa2.7V00:00:0000:00:0000:00:00
PETON7-102026-09-03 12:11:0147.1340819.6545854°9km/h19265m5.7m/s-52.5°C3.0%65.8hPa2.7V00:00:0000:00:0008:30:00
ATIDSZ-142026-09-03 12:10:4147.1342319.65414136°26km/h19150m6.7m/s-51.7°C0.2%67.0hPa2.7V00:00:0000:00:0000:00:00
GYPAP8-172026-09-03 12:10:3747.1342719.6540221°11km/h19118m4.4m/s-51.8°C0.2%67.3hPa2.7V00:00:0000:00:0000:00:00
OE3JTB-152026-09-03 12:10:3447.1342819.65387128°24km/h19078m9.1m/s-51.6°C2.8%67.7hPa2.7V00:00:0000:00:0000:00:00
PETON7-102026-09-03 12:10:3147.1342819.65387128°22km/h19078m9.1m/s-51.6°C2.8%67.7hPa2.7V00:00:0001:15:4300:00:00
PETON7-102026-09-03 12:10:1647.1345219.65269106°35km/h18979m6.1m/s-52.1°C2.8%68.8hPa2.7V00:00:0000:00:0000:00:00
ATIDSZ-142026-09-03 12:10:1447.1345319.6526197°24km/h18973m5.6m/s-52.3°C0.2%68.9hPa2.7V00:00:0000:00:0000:00:00
OE3JTB-152026-09-03 12:10:0447.1346719.6507296°33km/h18886m5.8m/s-52.9°C3.0%69.8hPa2.7V00:00:0001:15:1300:00:00
PETON7-102026-09-03 12:10:0147.1346719.6507296°33km/h18886m5.8m/s-52.9°C3.0%69.8hPa2.7V00:00:0000:00:0000:00:00
LZ4TU-52026-09-03 12:09:4447.1346419.64877107°29km/h18786m6.8m/s0°C0%0hPa2.7V00:00:0000:00:0000:00:00
LZ4TU-52026-09-03 12:09:3947.1347519.64825110°31km/h18756m7.3m/s0°C0%0hPa2.7V00:00:0000:00:0000:00:00
PETON7-102026-09-03 12:09:3147.1349719.64710118°29km/h18703m4.9m/s-53.9°C3.2%71.8hPa2.7V00:00:0000:00:0000:00:00
GYPAP8-172026-09-03 12:09:2447.1351819.64659125°27km/h18667m4.9m/s-53.9°C0.2%72.2hPa2.7V00:00:0000:00:0000:00:00
PETON7-102026-09-03 12:09:1647.1354619.64568117°33km/h18613m5.6m/s-53.9°C3.1%72.8hPa2.7V00:00:0000:00:0000:00:00
OE3JTB-152026-09-03 12:09:0447.1357119.6439699°53km/h18523m6.5m/s-54.5°C3.2%73.8hPa2.7V00:00:0000:00:0000:00:00
PETON7-102026-09-03 12:09:0147.1357119.6439699°31km/h18523m6.5m/s-54.5°C3.2%73.8hPa2.7V00:00:0001:14:1300:00:00
PETON7-102026-09-03 12:08:4647.1358919.6422990°37km/h18434m6.3m/s-54.7°C3.3%74.8hPa2.7V00:00:0000:00:0008:30:00
ATIDSZ-142026-09-03 12:08:4347.1358919.6420394°33km/h18420m6.0m/s-54.8°C0.3%75.0hPa2.7V00:00:0000:00:0000:00:00
PETON7-102026-09-03 12:08:2747.1356019.6398486°31km/h18314m6.4m/s-54.7°C3.3%76.2hPa2.7V00:00:0000:00:0000:00:00
PETON7-102026-09-03 12:08:1247.1354819.6381886°26km/h18222m5.3m/s-54.4°C3.2%77.4hPa2.7V00:00:0001:13:2400:00:00
PETON7-102026-09-03 12:07:5747.1354719.63679107°27km/h18132m6.1m/s-55.3°C3.5%78.5hPa2.7V00:00:0000:00:0000:00:00
ATIDSZ-142026-09-03 12:07:5047.1356919.63632134°31km/h18089m5.1m/s-55.2°C0.3%79.0hPa2.7V00:00:0000:00:0000:00:00
PETON7-102026-09-03 12:07:4247.1360319.63563116°22km/h18041m4.5m/s-54.9°C3.3%79.6hPa2.7V00:00:0000:00:0000:00:00
9A1FER-102026-09-03 12:07:3347.1363219.63497111°40km/h17987m5.1m/s0°C0%0hPa2.7V00:00:0001:12:4500:00:00
ATIDSZ-142026-09-03 12:07:2947.1363619.63472108°22km/h17966m6.1m/s-54.6°C0.3%80.6hPa2.7V00:00:0000:00:0000:00:00
GYPAP8-172026-09-03 12:07:2247.1364619.6341498°20km/h17921m5.0m/s-54.5°C0.3%81.2hPa2.7V00:00:0000:00:0000:00:00
PETON7-102026-09-03 12:07:1247.1364119.6333788°24km/h17861m5.2m/s-54.5°C3.4%81.9hPa2.7V00:00:0000:00:0000:00:00
ATIDSZ-142026-09-03 12:07:0847.1364119.6331283°24km/h17843m5.6m/s-54.5°C0.3%82.2hPa2.7V00:00:0000:00:0000:00:00
PETON7-102026-09-03 12:06:5747.1362419.63215112°20km/h17773m5.4m/s-53.8°C3.2%83.0hPa2.7V00:00:0000:00:0000:00:00
ATIDSZ-142026-09-03 12:06:4947.1362119.6316574°29km/h17727m4.5m/s-53.6°C0.3%83.6hPa2.7V00:00:0000:00:0000:00:00
PETON7-102026-09-03 12:06:4247.1361519.63108137°18km/h17686m6.7m/s-53.3°C3.1%84.1hPa2.7V00:00:0001:11:5400:00:00
GYPAP8-172026-09-03 12:06:3047.1362419.63049145°15km/h17612m3.4m/s-53.0°C0.3%85.2hPa2.7V00:00:0000:00:0000:00:00
ATIDSZ-142026-09-03 12:06:2747.1363819.63036140°27km/h17594m5.8m/s-52.9°C0.3%85.4hPa2.7V00:00:0000:00:0000:00:00
PETON7-102026-09-03 12:06:1247.1369919.62877118°35km/h17492m5.1m/s-53.9°C3.2%86.6hPa2.7V00:00:0000:00:0000:00:00
ATIDSZ-142026-09-03 12:06:0647.1372419.62804129°38km/h17461m6.3m/s-53.9°C0.3%87.1hPa2.7V00:00:0000:00:0000:00:00
PETON7-102026-09-03 12:05:5747.1377319.62723113°31km/h17409m5.2m/s-53.7°C3.1%87.9hPa2.7V00:00:0001:11:0900:00:00
ATIDSZ-142026-09-03 12:05:4547.1381819.62605113°27km/h17345m5.1m/s-54.5°C0.4%88.8hPa2.7V00:00:0000:00:0000:00:00
PETON7-102026-09-03 12:05:4247.1382719.62576114°33km/h17327m5.1m/s-54.7°C3.4%88.9hPa2.7V00:00:0000:00:0000:00:00
GYPAP8-172026-09-03 12:05:3647.1384019.62523106°33km/h17297m5.2m/s-55.0°C0.4%89.4hPa2.7V00:00:0000:00:0000:00:00
PETON7-102026-09-03 12:05:2747.1386119.62403114°37km/h17240m5.4m/s-55.1°C3.5%90.2hPa2.7V00:00:0000:00:0000:00:00
ATIDSZ-142026-09-03 12:05:2247.1387419.62354106°38km/h17218m4.8m/s-55.1°C0.4%90.6hPa2.7V00:00:0000:00:0000:00:00
PETON7-102026-09-03 12:05:1247.1390019.62212108°37km/h17155m5.5m/s-54.9°C3.5%91.4hPa2.7V00:00:0001:10:2400:00:00
ATIDSZ-142026-09-03 12:04:5747.1391819.62017101°35km/h17071m5.6m/s-54.5°C0.4%92.6hPa2.7V00:00:0000:00:0000:00:00
GYPAP8-172026-09-03 12:04:4547.1393519.6185699°38km/h17003m5.9m/s-54.1°C0.4%93.6hPa2.7V00:00:0000:00:0000:00:00
PETON7-102026-09-03 12:04:4247.1393719.6181596°35km/h16985m4.9m/s-53.9°C3.3%93.8hPa2.7V00:00:0000:00:0000:00:00
ATIDSZ-142026-09-03 12:04:3547.1394119.61739108°33km/h16950m5.3m/s-53.8°C0.4%94.4hPa2.7V00:00:0000:00:0000:00:00
PETON7-102026-09-03 12:04:2747.1396519.61627103°35km/h16898m4.8m/s-53.6°C3.3%95.1hPa2.7V00:00:0001:09:3900:00:00
ATIDSZ-142026-09-03 12:04:1447.1398119.61481119°35km/h16826m6.9m/s-53.4°C0.4%96.2hPa2.7V00:00:0000:00:0000:00:00
PETON7-102026-09-03 12:04:1247.1399419.61447120°35km/h16807m7.0m/s-53.2°C3.1%96.4hPa2.7V00:00:0000:00:0008:30:00
PETON7-102026-09-03 12:03:5747.1405419.61281121°38km/h16718m5.2m/s-53.2°C3.2%97.8hPa2.7V00:00:0000:00:0000:00:00
ATIDSZ-142026-09-03 12:03:5447.1406919.61237111°44km/h16700m4.5m/s-53.2°C0.4%98.1hPa2.7V00:00:0000:00:0000:00:00
GYPAP8-172026-09-03 12:03:5247.1407219.61223112°40km/h16695m7.1m/s-53.3°C0.4%98.2hPa2.7V00:00:0000:00:0000:00:00
PETON7-102026-09-03 12:03:4247.1412819.61097118°40km/h16629m5.5m/s-53.5°C3.2%99.2hPa2.7V00:00:0001:08:5400:00:00
ATIDSZ-142026-09-03 12:03:3247.1417719.60980118°38km/h16574m6.2m/s-53.5°C0.4%100.1hPa2.7V00:00:0000:00:0000:00:00
PETON7-102026-09-03 12:03:2747.1419919.60907112°35km/h16538m5.0m/s-53.5°C3.3%100.6hPa2.7V00:00:0000:00:0000:00:00
PETON7-102026-09-03 12:03:1347.1424819.60733113°35km/h16443m7.1m/s-53.0°C3.1%102.1hPa2.7V00:00:0000:00:0000:00:00
GYPAP8-172026-09-03 12:03:0047.1429919.60603114°29km/h16369m6.1m/s-52.6°C0.4%103.3hPa2.7V00:00:0000:00:0000:00:00
PETON7-102026-09-03 12:02:5747.1431119.60571122°42km/h16350m6.1m/s-52.8°C3.0%103.5hPa2.7V00:00:0001:08:0900:00:00
ATIDSZ-142026-09-03 12:02:5147.1435419.60501138°46km/h16307m6.4m/s-53.5°C0.4%104.3hPa2.7V00:00:0000:00:0000:00:00
PETON7-102026-09-03 12:02:4247.1441619.60396128°44km/h16253m5.5m/s-53.5°C3.3%105.1hPa2.7V00:00:0000:00:0000:00:00
ATIDSZ-142026-09-03 12:02:3047.1448219.60242129°44km/h16186m7.0m/s-53.3°C0.4%106.3hPa2.7V00:00:0000:00:0000:00:00
PETON7-102026-09-03 12:02:2747.1450819.60191122°42km/h16161m4.9m/s-53.2°C3.2%106.7hPa2.7V00:00:0000:00:0000:00:00
PETON7-102026-09-03 12:02:1247.1458519.59984126°40km/h16077m4.8m/s-53.2°C3.2%108.1hPa2.7V00:00:0001:07:2400:00:00
GYPAP8-172026-09-03 12:02:0547.1461219.59912115°37km/h16042m7.2m/s-53.9°C0.5%108.6hPa2.7V00:00:0000:00:0000:00:00
PETON7-102026-09-03 12:01:5747.1466519.59790128°55km/h15987m6.4m/s-53.7°C3.3%109.6hPa2.7V00:00:0000:00:0008:30:00
ATIDSZ-142026-09-03 12:01:4947.1472519.59691140°57km/h15945m5.8m/s-53.8°C0.5%110.4hPa2.7V00:00:0000:00:0000:00:00
PETON7-102026-09-03 12:01:4247.1481619.59572137°69km/h15897m5.2m/s-54.2°C3.5%111.1hPa2.7V00:00:0000:00:0000:00:00
ATIDSZ-142026-09-03 12:01:2847.1497519.59340133°80km/h15823m3.3m/s-54.7°C0.7%112.5hPa2.7V00:00:0000:00:0000:00:00
PETON7-102026-09-03 12:01:2647.1501219.59275128°69km/h15806m4.3m/s-54.5°C3.7%112.8hPa2.7V00:00:0001:06:3800:00:00
PETON7-102026-09-03 12:01:1147.1515819.58951118°73km/h15720m5.2m/s-54.2°C3.6%114.2hPa2.7V00:00:0000:00:0000:00:00
PETON7-102026-09-03 12:00:5647.1530519.58606120°69km/h15638m5.3m/s-54.7°C3.7%115.7hPa2.7V00:00:0000:00:0000:00:00
PETON7-102026-09-03 12:00:4147.1541319.58253115°78km/h15555m6.0m/s-56.1°C4.1%117.2hPa2.7V00:00:0001:05:5300:00:00
ATIDSZ-142026-09-03 12:00:3047.1547519.57981106°82km/h15503m5.0m/s-57.4°C1.1%118.3hPa2.7V00:00:0000:00:0000:00:00
PETON7-102026-09-03 12:00:2647.1549919.57838105°71km/h15478m5.0m/s-57.7°C4.7%118.7hPa2.7V00:00:0000:00:0000:00:00
PETON7-102026-09-03 12:00:1147.1554519.57450100°58km/h15399m8.0m/s-57.6°C4.8%120.1hPa2.7V00:00:0000:00:0000:00:00
GYPAP8-172026-09-03 12:00:0947.1554819.57429103°57km/h15393m4.8m/s-57.7°C1.2%120.3hPa2.7V00:00:0000:00:0000:00:00
ATIDSZ-142026-09-03 12:00:0847.1555119.57408102°57km/h15388m5.4m/s-57.7°C1.2%120.4hPa2.7V00:00:0000:00:0000:00:00
PETON7-102026-09-03 11:59:5647.1559319.57134108°49km/h15318m5.6m/s-57.2°C4.7%121.7hPa2.7V00:00:0001:05:0800:00:00
ATIDSZ-142026-09-03 11:59:4847.1561419.57023105°53km/h15277m6.0m/s-57.1°C1.2%122.6hPa2.7V00:00:0000:00:0000:00:00
PETON7-102026-09-03 11:59:4147.1565119.56879115°42km/h15230m6.2m/s-56.8°C4.6%123.3hPa2.7V00:00:0000:00:0008:30:00
ATIDSZ-142026-09-03 11:59:2847.1571919.56698124°40km/h15146m5.4m/s-56.8°C1.2%125.1hPa2.7V00:00:0000:00:0000:00:00
PETON7-102026-09-03 11:59:2647.1573119.56672127°44km/h15133m5.3m/s-56.6°C4.6%125.3hPa2.7V00:00:0000:00:0000:00:00
PETON7-102026-09-03 11:59:1147.1583619.56483131°53km/h15042m7.2m/s-56.2°C4.4%127.1hPa2.7V00:00:0001:04:2300:00:00
GYPAP8-172026-09-03 11:59:0647.1588219.56413138°53km/h15009m5.5m/s-56.1°C1.1%127.8hPa2.7V00:00:0000:00:0000:00:00
ATIDSZ-142026-09-03 11:59:0547.1588219.56413138°53km/h15009m5.5m/s-56.1°C1.1%127.8hPa2.7V00:00:0000:00:0000:00:00
PETON7-102026-09-03 11:58:5647.1597019.56257137°62km/h14946m3.9m/s-56.1°C4.4%129.1hPa2.7V00:00:0000:00:0000:00:00
ATIDSZ-142026-09-03 11:58:4547.1607119.56083125°62km/h14886m7.0m/s-56.1°C1.1%130.3hPa2.7V00:00:0000:00:0000:00:00
PETON7-102026-09-03 11:58:4047.1612119.55969127°66km/h14848m5.9m/s-56.3°C4.4%131.1hPa2.7V00:00:0000:00:0000:00:00
PETON7-102026-09-03 11:58:2547.1624719.55653122°69km/h14756m5.2m/s-56.0°C4.5%133.0hPa2.7V00:00:0001:03:3700:00:00
ATIDSZ-142026-09-03 11:58:2447.1624719.55652122°62km/h14756m5.2m/s-56.0°C1.1%133.0hPa2.7V00:00:0000:00:0000:00:00
9A1FER-102026-09-03 11:58:1847.1630819.55504121°71km/h14714m4.4m/s0°C0%0hPa2.7V00:00:0001:03:3000:00:00
OE3JTB-152026-09-03 11:58:1347.1638319.55318121°75km/h14667m7.3m/s-55.3°C4.3%134.8hPa2.7V00:00:0001:03:2200:00:00
PETON7-102026-09-03 11:58:1047.1638319.55318121°75km/h14667m7.3m/s-55.3°C4.3%134.8hPa2.7V00:00:0000:00:0000:00:00
GYPAP8-172026-09-03 11:58:0647.1642219.55221119°71km/h14644m3.0m/s-55.2°C1.1%135.4hPa2.7V00:00:0000:00:0000:00:00
ATIDSZ-142026-09-03 11:58:0447.1643919.55173118°77km/h14633m7.5m/s-55.2°C1.1%135.6hPa2.7V00:00:0000:00:0000:00:00
PETON7-102026-09-03 11:57:5547.1651919.54949122°73km/h14578m3.9m/s-54.7°C4.1%136.7hPa2.7V00:00:0000:00:0000:00:00
ATIDSZ-142026-09-03 11:57:4347.1661919.54645117°68km/h14502m7.3m/s-54.5°C1.0%138.4hPa2.7V00:00:0000:00:0000:00:00
PETON7-102026-09-03 11:57:4047.1664119.54581120°71km/h14484m4.9m/s-54.3°C4.0%138.8hPa2.7V00:00:0001:02:5200:00:00
PETON7-102026-09-03 11:57:2547.1675319.54218123°64km/h14395m3.7m/s-53.8°C3.9%140.7hPa2.7V00:00:0000:00:0008:30:00
ATIDSZ-142026-09-03 11:57:2147.1677619.54157117°62km/h14378m6.3m/s-53.7°C1.0%141.1hPa2.7V00:00:0000:00:0000:00:00
PETON7-102026-09-03 11:57:1047.1685219.53890117°68km/h14306m6.1m/s-53.8°C3.9%142.7hPa2.7V00:00:0000:00:0000:00:00
ATIDSZ-142026-09-03 11:57:0247.1690519.53709106°69km/h14266m5.4m/s-53.8°C1.0%143.6hPa2.7V00:00:0000:00:0000:00:00
GYPAP8-172026-09-03 11:57:0147.1690519.53709106°69km/h14266m5.4m/s-53.8°C1.0%143.6hPa2.7V00:00:0000:00:0000:00:00
PETON7-102026-09-03 11:56:5547.1694919.53543116°64km/h14231m3.8m/s-53.5°C3.9%144.4hPa2.7V00:00:0001:02:0700:00:00
OE3JTB-152026-09-03 11:56:5247.1697819.53463117°64km/h14210m6.1m/s-53.5°C3.9%144.8hPa2.7V00:00:0000:00:0000:00:00
ATIDSZ-142026-09-03 11:56:4147.1703619.53266118°64km/h14163m5.8m/s-53.4°C1.0%146.0hPa2.7V00:00:0000:00:0000:00:00
PETON7-102026-09-03 11:56:4047.1705119.53222115°64km/h14153m5.7m/s-53.4°C3.9%146.1hPa2.7V00:00:0000:00:0000:00:00
9A1FER-102026-09-03 11:56:3447.1709119.53091112°62km/h14121m4.8m/s0°C0%0hPa2.7V00:00:0001:01:4600:00:00
PETON7-102026-09-03 11:56:2447.1714719.52869110°64km/h14069m6.1m/s-53.3°C4.0%148.1hPa2.7V00:00:0000:00:0000:00:00
OE3JTB-152026-09-03 11:56:2347.1715319.52846110°64km/h14063m6.5m/s-53.3°C4.0%148.1hPa2.7V00:00:0001:01:3500:00:00
ATIDSZ-142026-09-03 11:56:2047.1716719.52779105°62km/h14047m6.2m/s-53.5°C1.1%148.6hPa2.7V00:00:0000:00:0000:00:00
PETON7-102026-09-03 11:56:0947.1721219.52526107°62km/h13982m5.0m/s-53.5°C4.3%150.1hPa2.7V00:00:0001:01:2100:00:00
ATIDSZ-142026-09-03 11:55:5947.1725619.52324112°58km/h13929m5.1m/s-53.2°C1.2%151.4hPa2.7V00:00:0000:00:0000:00:00
GYPAP8-172026-09-03 11:55:5447.1728219.52225111°57km/h13901m3.6m/s-53.0°C1.2%152.0hPa2.7V00:00:0000:00:0000:00:00
ATIDSZ-142026-09-03 11:55:4047.1736119.51937117°53km/h13819m6.3m/s-53.0°C1.3%154.0hPa2.7V00:00:0000:00:0000:00:00
PETON7-102026-09-03 11:55:3847.1737319.51901120°53km/h13807m6.2m/s-52.9°C4.3%154.2hPa2.7V00:00:0000:00:0000:00:00
PETON7-102026-09-03 11:55:2347.1746519.51644124°47km/h13721m2.8m/s-52.5°C4.3%156.3hPa2.7V00:00:0001:00:3500:00:00
ATIDSZ-142026-09-03 11:55:1847.1749919.51563126°55km/h13693m4.9m/s-52.5°C1.4%156.9hPa2.7V00:00:0000:00:0000:00:00
PETON7-102026-09-03 11:55:0847.1757319.51430127°60km/h13630m4.5m/s-52.3°C4.1%158.4hPa2.7V00:00:0000:00:0008:30:00
OE3JTB-152026-09-03 11:55:0747.1758119.51413127°64km/h13624m7.6m/s-52.4°C4.1%158.6hPa2.7V00:00:0000:00:0000:00:00
ATIDSZ-142026-09-03 11:54:5647.1768219.51250136°58km/h13565m5.0m/s-52.3°C1.5%160.1hPa2.7V00:00:0000:00:0000:00:00
PETON7-102026-09-03 11:54:5347.1772519.51182132°64km/h13542m5.6m/s-52.6°C4.2%160.6hPa2.7V00:00:0000:00:0000:00:00
GYPAP8-172026-09-03 11:54:5147.1773619.51164133°64km/h13537m5.2m/s-52.7°C1.5%160.8hPa2.7V00:00:0000:00:0000:00:00
ATIDSZ-142026-09-03 11:54:3647.1791019.50882131°66km/h13448m5.3m/s-52.4°C1.6%163.1hPa2.7V00:00:0000:00:0000:00:00
PETON7-102026-09-03 11:54:2347.1805819.50648135°68km/h13375m5.0m/s-52.5°C4.6%164.9hPa2.7V00:00:0000:00:0000:00:00
ATIDSZ-142026-09-03 11:54:1347.1814919.50477125°71km/h13327m3.7m/s-52.4°C1.7%166.2hPa2.7V00:00:0000:00:0000:00:00
PETON7-102026-09-03 11:54:0847.1821419.50358128°68km/h13297m6.1m/s-52.2°C4.6%166.9hPa2.7V00:00:0000:00:0000:00:00
OE3JTB-152026-09-03 11:54:0747.1822419.50338127°69km/h13291m5.4m/s-52.2°C4.6%167.0hPa2.7V00:00:0000:00:0008:30:00
PETON7-102026-09-03 11:53:5347.1836919.50062127°71km/h13209m5.0m/s-51.8°C4.7%169.2hPa2.7V00:00:0000:59:0500:00:00
ATIDSZ-142026-09-03 11:53:5247.1836919.50062127°57km/h13209m5.0m/s-51.8°C1.9%169.2hPa2.7V00:00:0000:00:0000:00:00
GYPAP8-172026-09-03 11:53:4647.1843419.49958137°77km/h13171m4.2m/s-51.8°C2.0%170.2hPa2.7V00:00:0000:00:0000:00:00
PETON7-102026-09-03 11:53:3847.1855319.49771128°84km/h13118m4.8m/s-52.1°C5.2%171.5hPa2.7V00:00:0000:00:0000:00:00
ATIDSZ-142026-09-03 11:53:3147.1863519.49638132°86km/h13088m4.8m/s-52.3°C2.7%172.4hPa2.7V00:00:0000:00:0000:00:00
PETON7-102026-09-03 11:53:2247.1876719.49377131°82km/h13037m5.2m/s-52.9°C7.5%173.7hPa2.7V00:00:0000:00:0000:00:00
ATIDSZ-142026-09-03 11:53:1147.1890619.49123127°86km/h12977m5.9m/s-55.1°C6.3%175.3hPa2.7V00:00:0000:00:0000:00:00
OE3JTB-152026-09-03 11:53:0947.1893219.49069127°89km/h12965m7.2m/s0°C0%0hPa2.7V00:00:0000:58:2100:00:00
PETON7-102026-09-03 11:53:0747.1896019.49017129°88km/h12954m4.0m/s-55.2°C11.4%175.9hPa2.7V00:00:0000:58:1900:00:00
GYPAP8-172026-09-03 11:52:5447.1914919.48696131°89km/h12884m5.3m/s-54.9°C6.1%177.9hPa2.7V00:00:0000:00:0000:00:00
PETON7-102026-09-03 11:52:5247.1917819.48645130°91km/h12873m4.2m/s-54.8°C10.4%178.2hPa2.7V00:00:0000:00:0008:30:00
ATIDSZ-142026-09-03 11:52:4947.1920819.48592130°97km/h12862m7.2m/s-54.9°C5.9%178.6hPa2.7V00:00:0000:00:0000:00:00
PETON7-102026-09-03 11:52:3747.1939719.48259123°84km/h12785m6.4m/s-54.8°C9.5%180.6hPa2.7V00:00:0000:00:0000:00:00
ATIDSZ-142026-09-03 11:52:3047.1947419.48075122°84km/h12746m3.2m/s-54.6°C5.3%181.8hPa2.7V00:00:0000:00:0000:00:00
PETON7-102026-09-03 11:52:2147.1958919.47845133°84km/h12690m5.7m/s-54.9°C10.0%183.3hPa2.7V00:00:0000:57:3300:00:00
ATIDSZ-142026-09-03 11:52:0747.1977419.47543132°84km/h12610m4.9m/s-54.9°C6.4%185.6hPa2.7V00:00:0000:00:0000:00:00
PETON7-102026-09-03 11:52:0647.1980019.47498130°78km/h12599m5.1m/s-54.7°C11.1%185.9hPa2.7V00:00:0000:00:0000:00:00
GYPAP8-172026-09-03 11:51:4047.2018019.46998140°78km/h12446m5.8m/s-54.2°C9.5%190.6hPa2.9V00:00:0000:00:0000:00:00
PETON7-102026-09-03 11:51:3647.2026019.46908144°88km/h12418m4.6m/s-54.1°C16.8%191.3hPa2.9V00:00:0000:56:4800:00:00
PETON7-102026-09-03 11:51:2147.2054319.46654151°99km/h12327m5.2m/s-54.2°C22.0%194.0hPa2.9V00:00:0000:00:0000:00:00
PETON7-102026-09-03 11:51:0647.2089019.46429156°122km/h12235m6.7m/s-56.1°C34.4%196.7hPa2.9V00:00:0000:00:0000:00:00
ATIDSZ-142026-09-03 11:51:0047.2101719.46312144°124km/h12190m8.3m/s-57.4°C30.2%198.1hPa2.9V00:00:0000:00:0000:00:00
PETON7-102026-09-03 11:50:5147.2127119.46031142°124km/h12127m7.5m/s-57.7°C44.3%200.1hPa2.9V00:00:0000:56:0300:00:00
GYPAP8-172026-09-03 11:50:4547.2140819.45860139°124km/h12092m4.5m/s-57.6°C33.5%201.3hPa2.9V00:00:0000:00:0000:00:00
ATIDSZ-142026-09-03 11:50:3947.2155019.45660139°128km/h12058m4.8m/s-57.5°C33.7%202.4hPa2.9V00:00:0000:00:0000:00:00
PETON7-102026-09-03 11:50:3647.2161819.45570138°122km/h12041m6.1m/s-57.4°C46.1%202.9hPa2.9V00:00:0000:00:0008:30:00
PETON7-102026-09-03 11:50:2147.2194519.45083133°113km/h11948m6.2m/s-57.1°C47.1%205.9hPa2.9V00:00:0000:00:0000:00:00
ATIDSZ-142026-09-03 11:50:1747.2199519.44996129°104km/h11927m5.9m/s-57.1°C35.7%206.7hPa2.9V00:00:0000:00:0000:00:00
PETON7-102026-09-03 11:50:0547.2227219.44613136°110km/h11832m3.7m/s-56.3°C43.8%209.7hPa2.9V00:00:0000:55:1700:00:00
ATIDSZ-142026-09-03 11:49:5647.2243019.44407138°111km/h11790m8.4m/s-56.2°C30.4%211.1hPa2.9V00:00:0000:00:0000:00:00
PETON7-102026-09-03 11:49:5047.2257919.44206138°108km/h11745m4.8m/s-55.7°C38.1%212.6hPa2.9V00:00:0000:00:0000:00:00
ATIDSZ-142026-09-03 11:49:3747.2284019.43854142°106km/h11666m2.5m/s-55.5°C26.9%215.3hPa2.9V00:00:0000:00:0000:00:00
GYPAP8-172026-09-03 11:49:3047.2298219.43666137°111km/h11626m3.3m/s-55.5°C25.4%216.8hPa2.9V00:00:0000:00:0000:00:00
PETON7-102026-09-03 11:49:2047.2318819.43394140°108km/h11566m5.4m/s-55.0°C33.5%218.8hPa2.9V00:00:0000:54:3200:00:00
ATIDSZ-142026-09-03 11:49:1647.2325119.43314141°104km/h11548m5.4m/s-54.9°C24.1%219.3hPa2.9V00:00:0000:00:0000:00:00
PETON7-102026-09-03 11:49:0547.2350519.43010144°104km/h11463m9.3m/s-54.1°C30.5%222.3hPa2.9V00:00:0000:00:0000:00:00
ATIDSZ-142026-09-03 11:48:5447.2371919.42788144°93km/h11389m4.5m/s-53.5°C21.3%224.9hPa2.9V00:00:0000:00:0000:00:00
PETON7-102026-09-03 11:48:5047.2381819.42667143°110km/h11361m9.1m/s-53.2°C28.3%225.9hPa2.9V00:00:0000:00:0000:00:00
PETON7-102026-09-03 11:48:3547.2415219.42309142°108km/h11266m4.7m/s-52.3°C26.5%229.2hPa2.9V00:00:0000:53:4700:00:00
ATIDSZ-142026-09-03 11:48:3347.2417419.42284142°108km/h11261m5.2m/s-52.3°C19.3%229.4hPa2.9V00:00:0000:00:0000:00:00
PETON7-102026-09-03 11:48:2047.2449419.41991145°111km/h11181m6.0m/s-51.6°C27.3%232.2hPa2.9V00:00:0000:00:0008:30:00
ATIDSZ-142026-09-03 11:48:1347.2462319.41851147°130km/h11140m9.5m/s-51.5°C20.6%233.6hPa2.9V00:00:0000:00:0000:00:00
PETON7-102026-09-03 11:48:0547.2485619.41668146°124km/h11076m6.2m/s-51.2°C31.0%236.0hPa2.9V00:00:0000:00:0000:00:00
ATIDSZ-142026-09-03 11:47:5347.2517519.41371152°115km/h10987m7.4m/s-51.5°C29.7%239.2hPa2.9V00:00:0000:00:0000:00:00
GYPAP8-172026-09-03 11:47:5147.2522719.41326149°122km/h10973m9.0m/s-51.6°C30.6%239.7hPa2.9V00:00:0000:00:0000:00:00
PETON7-102026-09-03 11:47:5047.2525419.41300147°155km/h10965m7.8m/s-51.6°C40.1%239.9hPa2.9V00:00:0000:53:0200:00:00
PETON7-102026-09-03 11:47:3547.2577919.40876152°153km/h10851m4.8m/s-51.5°C44.6%244.2hPa2.9V00:00:0000:00:0000:00:00
ATIDSZ-142026-09-03 11:47:3247.2584919.40819152°157km/h10841m5.1m/s-51.5°C35.0%244.7hPa2.7V00:00:0000:00:0000:00:00
PETON7-102026-09-03 11:47:2047.2627919.40435147°148km/h10765m7.4m/s-51.1°C48.4%247.5hPa2.7V00:00:0000:00:0000:00:00
ATIDSZ-142026-09-03 11:47:1247.2653219.40215151°148km/h10719m6.4m/s-50.9°C42.2%249.3hPa2.7V00:00:0000:00:0000:00:00
PETON7-102026-09-03 11:47:0447.2679219.39982149°144km/h10662m4.8m/s-50.5°C54.7%251.5hPa2.7V00:00:0000:52:1600:00:00
ATIDSZ-142026-09-03 11:46:5147.2715719.39641148°144km/h10586m7.2m/s-50.1°C43.9%254.4hPa2.7V00:00:0000:00:0000:00:00
PETON7-102026-09-03 11:46:4947.2724919.39553148°142km/h10563m6.2m/s-49.9°C55.5%255.2hPa2.7V00:00:0000:00:0000:00:00
GYPAP8-172026-09-03 11:46:4847.2728019.39524147°148km/h10555m8.2m/s-49.9°C44.4%255.5hPa2.7V00:00:0000:00:0000:00:00
PETON7-102026-09-03 11:46:3447.2769919.39114148°146km/h10474m6.7m/s-49.1°C54.4%258.7hPa2.7V00:00:0000:00:0000:00:00
ATIDSZ-142026-09-03 11:46:3047.2780019.39022150°153km/h10455m2.9m/s-49.0°C44.8%259.5hPa2.7V00:00:0000:00:0000:00:00
PETON7-102026-09-03 11:46:1947.2816919.38684148°135km/h10384m5.5m/s-48.3°C52.6%262.2hPa2.7V00:00:0000:51:3100:00:00
ATIDSZ-142026-09-03 11:46:1047.2840519.38480151°119km/h10338m4.1m/s-47.9°C42.7%264.2hPa2.7V00:00:0000:00:0000:00:00
PETON7-102026-09-03 11:46:0447.2861119.38310153°135km/h10296m6.6m/s-47.6°C50.5%266.0hPa2.7V00:00:0000:00:0008:30:00
PETON7-102026-09-03 11:45:4947.2904919.37938150°124km/h10190m8.0m/s-46.7°C45.7%270.2hPa2.9V00:00:0000:00:0000:00:00
ATIDSZ-142026-09-03 11:45:4847.2904919.37938151°113km/h10190m8.1m/s-46.7°C37.2%270.2hPa2.9V00:00:0000:00:0000:00:00
GYPAP8-172026-09-03 11:45:4547.2914419.37838147°122km/h10164m7.6m/s-46.5°C35.3%271.4hPa2.9V00:00:0000:00:0000:00:00
PETON7-102026-09-03 11:45:3447.2946319.37597152°122km/h10084m6.0m/s-45.8°C38.7%274.4hPa2.9V00:00:0000:50:4600:00:00
ATIDSZ-142026-09-03 11:45:2847.2961919.37460158°117km/h10045m7.0m/s-45.7°C26.8%276.2hPa2.9V00:00:0000:00:0000:00:00
PETON7-102026-09-03 11:45:1947.2986619.37280151°113km/h9982m7.0m/s-45.1°C28.5%278.7hPa2.9V00:00:0000:00:0000:00:00
ATIDSZ-142026-09-03 11:45:0747.3018019.37068149°111km/h9912m7.8m/s-44.5°C20.3%281.6hPa2.9V00:00:0000:00:0000:00:00
PETON7-102026-09-03 11:45:0447.3025319.37008154°110km/h9892m4.9m/s-44.2°C26.8%282.5hPa2.9V00:00:0000:00:0000:00:00
GYPAP8-172026-09-03 11:44:5047.3058419.36772155°102km/h9813m8.3m/s-43.7°C21.4%285.9hPa2.9V00:00:0000:00:0000:00:00
PETON7-102026-09-03 11:44:4947.3062819.36740156°110km/h9799m4.5m/s-43.5°C26.5%286.5hPa2.9V00:00:0000:50:0100:00:00
ATIDSZ-142026-09-03 11:44:4647.3067319.36707154°106km/h9787m5.8m/s-43.4°C20.7%287.1hPa2.9V00:00:0000:00:0000:00:00
PETON7-102026-09-03 11:44:3447.3100419.36485153°102km/h9706m4.0m/s-42.7°C25.6%290.5hPa2.9V00:00:0000:00:0000:00:00
ATIDSZ-142026-09-03 11:44:2547.3119519.36355154°97km/h9659m3.8m/s-42.4°C21.6%292.4hPa2.9V00:00:0000:00:0000:00:00
PETON7-102026-09-03 11:44:1947.3135819.36258162°108km/h9621m4.4m/s-42.0°C26.7%294.2hPa2.9V00:00:0000:00:0000:00:00
OE3JTB-152026-09-03 11:44:1547.3147319.36191156°64km/h9595m7.6m/s0°C0%0hPa2.9V00:00:0000:00:0000:00:00
PETON7-102026-09-03 11:44:0447.3173719.36029158°104km/h9523m9.2m/s-41.2°C23.2%298.5hPa2.9V00:00:0000:49:1600:00:00
PETON7-102026-09-03 11:43:4947.3210619.35833157°106km/h9439m5.8m/s-40.5°C20.2%302.2hPa2.9V00:00:0000:00:0008:30:00
ATIDSZ-142026-09-03 11:43:4447.3220919.35787169°108km/h9416m5.4m/s-40.3°C15.8%303.1hPa2.9V00:00:0000:00:0000:00:00
GYPAP8-172026-09-03 11:43:4147.3228819.35758167°106km/h9402m8.3m/s-40.2°C15.0%303.9hPa2.9V00:00:0000:00:0000:00:00
PETON7-102026-09-03 11:43:3447.3248719.35654164°100km/h9350m3.5m/s-39.7°C17.8%306.2hPa2.9V00:00:0000:00:0000:00:00
ATIDSZ-142026-09-03 11:43:2347.3272019.35522159°104km/h9288m5.6m/s-39.2°C13.5%309.0hPa2.9V00:00:0000:00:0000:00:00
PETON7-102026-09-03 11:43:1947.3284119.35469167°89km/h9256m7.9m/s-38.9°C16.4%310.3hPa2.9V00:00:0000:48:3100:00:00
PETON7-102026-09-03 11:43:0447.3317419.35321169°89km/h9164m8.1m/s-38.4°C20.4%314.5hPa2.9V00:00:0000:00:0000:00:00
ATIDSZ-142026-09-03 11:43:0347.3317419.35321170°95km/h9164m8.1m/s-38.5°C16.8%314.6hPa2.9V00:00:0000:00:0000:00:00
PETON7-102026-09-03 11:42:4947.3350519.35205175°84km/h9069m9.6m/s-37.7°C17.4%318.9hPa2.9V00:00:0000:00:0000:00:00
ATIDSZ-142026-09-03 11:42:4247.3364319.35148157°99km/h9035m8.5m/s-37.4°C13.5%320.6hPa2.9V00:00:0000:00:0000:00:00
GYPAP8-172026-09-03 11:42:3847.3372419.35093158°77km/h9014m4.5m/s-37.2°C0%321.6hPa2.9V00:00:0000:00:0000:00:00
PETON7-102026-09-03 11:42:3447.3381219.35055169°88km/h8982m5.8m/s-37.0°C17.3%323.1hPa2.9V00:00:0000:47:4600:00:00
ATIDSZ-142026-09-03 11:42:2147.3407319.34941164°78km/h8907m6.6m/s-36.6°C14.8%326.6hPa2.9V00:00:0000:00:0000:00:00
PETON7-102026-09-03 11:42:1947.3412519.34908150°75km/h8885m7.7m/s-36.4°C18.7%327.6hPa2.9V00:00:0000:00:0000:00:00
PETON7-102026-09-03 11:42:0447.3439119.34753150°78km/h8789m6.3m/s-35.6°C19.6%332.1hPa2.9V00:00:0000:00:0000:00:00
ATIDSZ-142026-09-03 11:42:0147.3442719.34726158°82km/h8778m7.5m/s-35.6°C16.5%332.8hPa2.9V00:00:0000:00:0000:00:00
PETON7-102026-09-03 11:41:4747.3469519.34557153°73km/h8690m7.6m/s-35.2°C24.5%336.9hPa2.9V00:00:0000:46:5900:00:00
ATIDSZ-142026-09-03 11:41:4047.3478919.34477151°80km/h8653m5.9m/s-35.0°C21.9%338.7hPa2.9V00:00:0000:00:0000:00:00
GYPAP8-172026-09-03 11:41:3347.3489919.34370142°71km/h8615m3.7m/s-34.7°C0%340.7hPa2.9V00:00:0000:00:0000:00:00
PETON7-102026-09-03 11:41:3247.3492519.34335136°71km/h8601m6.7m/s-34.5°C24.3%341.3hPa2.9V00:00:0000:00:0008:30:00
ATIDSZ-142026-09-03 11:41:2147.3509619.34191135°71km/h8538m7.8m/s-34.1°C20.0%344.4hPa2.9V00:00:0000:00:0000:00:00
PETON7-102026-09-03 11:41:1747.3515119.34124151°62km/h8514m6.5m/s-33.9°C23.5%345.5hPa2.9V00:00:0000:00:0000:00:00
PETON7-102026-09-03 11:41:0247.3534719.33936145°62km/h8414m7.2m/s-33.3°C33.3%350.4hPa2.9V00:00:0000:46:1400:00:00
ATIDSZ-142026-09-03 11:40:5947.3537219.33904136°68km/h8402m6.9m/s-33.3°C30.2%351.0hPa2.9V00:00:0000:00:0000:00:00
PETON7-102026-09-03 11:40:4747.3553219.33734143°60km/h8322m6.8m/s-32.6°C37.5%355.0hPa2.9V00:00:0000:00:0000:00:00
ATIDSZ-142026-09-03 11:40:3947.3562419.33645150°62km/h8273m5.2m/s-32.3°C33.9%357.5hPa2.7V00:00:0000:00:0000:00:00
GYPAP8-172026-09-03 11:40:3247.3571519.33534137°53km/h8226m9.3m/s-32.0°C0%360.2hPa2.7V00:00:0000:00:0000:00:00
ATIDSZ-142026-09-03 11:40:1847.3586419.33343146°58km/h8143m9.0m/s-31.4°C38.8%364.3hPa2.7V00:00:0000:00:0000:00:00
PETON7-102026-09-03 11:40:1747.3588519.33319137°53km/h8127m8.7m/s-31.2°C42.6%365.1hPa2.7V00:00:0000:45:2900:00:00
PETON7-102026-09-03 11:40:0247.3601419.33090132°55km/h8023m9.2m/s-30.5°C34.9%370.3hPa2.7V00:00:0000:00:0000:00:00
ATIDSZ-142026-09-03 11:39:5847.3604519.33046136°53km/h8002m6.2m/s-30.3°C29.6%371.5hPa2.9V00:00:0000:00:0000:00:00
PETON7-102026-09-03 11:39:4747.3613619.32843141°47km/h7914m7.0m/s-29.5°C31.5%375.9hPa2.9V00:00:0000:00:0000:00:00
ATIDSZ-142026-09-03 11:39:3747.3621419.32742124°46km/h7857m8.1m/s-29.0°C26.4%379.1hPa2.9V00:00:0000:00:0000:00:00
PETON7-102026-09-03 11:39:3247.3627119.32660136°46km/h7820m6.6m/s-28.6°C29.4%381.1hPa2.9V00:00:0000:44:4400:00:00
GYPAP8-172026-09-03 11:39:2847.3629519.32617124°38km/h7802m7.2m/s-28.4°C0%382.1hPa2.9V00:00:0000:00:0000:00:00
PETON7-102026-09-03 11:39:1847.3639519.32479141°49km/h7728m9.2m/s-27.7°C26.6%386.1hPa2.9V00:00:0000:00:0008:30:00
PETON7-102026-09-03 11:39:0247.3652419.32287131°46km/h7617m6.9m/s-26.6°C24.5%392.0hPa2.9V00:00:0000:00:0000:00:00
ATIDSZ-142026-09-03 11:38:5647.3657219.32215144°44km/h7585m7.3m/s-26.4°C22.2%393.9hPa2.9V00:00:0000:00:0000:00:00
PETON7-102026-09-03 11:38:4747.3664719.32111140°57km/h7517m5.5m/s-25.7°C23.8%397.5hPa2.9V00:00:0000:43:5900:00:00
ATIDSZ-142026-09-03 11:38:3547.3675519.31948145°57km/h7451m6.4m/s-25.1°C17.4%401.3hPa2.9V00:00:0000:00:0000:00:00
OE3JTB-152026-09-03 11:38:3447.3679119.31909140°53km/h7431m7.6m/s0°C0%0hPa2.9V00:00:0000:00:0000:00:00
PETON7-102026-09-03 11:38:3247.3680319.31893137°53km/h7424m7.9m/s-24.8°C18.8%402.8hPa2.9V00:00:0000:00:0000:00:00
GYPAP8-172026-09-03 11:38:2647.3685819.31805131°64km/h7391m9.3m/s-24.5°C0%404.4hPa0V00:00:0000:00:0000:00:00
PETON7-102026-09-03 11:38:1747.3694619.31686149°51km/h7331m4.4m/s-24.0°C13.2%407.8hPa0V00:00:0000:00:0000:00:00
ATIDSZ-142026-09-03 11:38:1547.3695419.31677145°42km/h7327m5.1m/s-24.0°C11.6%408.1hPa0V00:00:0000:00:0000:00:00
OE3JTB-152026-09-03 11:38:0447.3706019.31512135°55km/h7251m6.6m/s0°C0%0hPa0V00:00:0000:00:0000:00:00
PETON7-102026-09-03 11:38:0247.3708119.31481138°55km/h7237m7.9m/s0°C0%0hPa0V00:00:0000:43:1400:00:00
PETON7-102026-09-03 11:37:4747.3723319.31271143°55km/h7132m7.5m/s0°C0%0hPa0V00:00:0000:00:0000:00:00
OE3JTB-152026-09-03 11:37:3547.3735519.31111130°57km/h7055m8.5m/s0°C0%0hPa0V00:00:0000:42:4700:00:00
ATIDSZ-142026-09-03 11:37:3447.3735519.31111130°57km/h7055m8.5m/s-22.1°C8.0%423.7hPa0V00:00:0000:00:0000:00:00
PETON7-102026-09-03 11:37:3247.3738419.31057131°58km/h7033m8.8m/s0°C0%0hPa0V00:00:0000:00:0000:00:00
GYPAP8-172026-09-03 11:37:2647.3742919.30973134°60km/h6997m6.5m/s-21.7°C0%427.0hPa0V00:00:0000:00:0000:00:00
PETON7-102026-09-03 11:37:1747.3753819.30832130°57km/h6929m7.1m/s0°C0%0hPa0V00:00:0000:42:2900:00:00
OE3JTB-152026-09-03 11:37:0647.3765619.30670138°55km/h6853m7.3m/s0°C0%0hPa0V00:00:0000:00:0000:00:00
PETON7-102026-09-03 11:37:0247.3769819.30616137°57km/h6825m7.9m/s0°C0%0hPa0V00:00:0000:00:0000:00:00
ATIDSZ-142026-09-03 11:36:5347.3778619.30474138°60km/h6761m7.1m/s-19.9°C21.8%440.7hPa0V00:00:0000:00:0000:00:00
ATIDSZ-142026-09-03 11:36:3247.3800319.30181138°60km/h6629m7.3m/s-18.9°C20.0%448.6hPa0V00:00:0000:00:0000:00:00
GYPAP8-172026-09-03 11:36:2947.3804519.30123134°53km/h6602m7.6m/s0°C0%450.1hPa0V00:00:0000:00:0000:00:00
ATIDSZ-142026-09-03 11:36:1147.3821519.29869136°57km/h6482m7.9m/s-18.3°C40.7%457.5hPa0V00:00:0000:00:0000:00:00
ATIDSZ-142026-09-03 11:35:5047.3840819.29589136°51km/h6333m8.7m/s-17.3°C39.1%466.7hPa0V00:00:0000:00:0000:00:00
ATIDSZ-142026-09-03 11:35:3047.3855719.29324137°57km/h6204m4.9m/s-16.9°C56.7%474.8hPa0V00:00:0000:00:0000:00:00
GYPAP8-172026-09-03 11:35:2047.3862819.29187126°42km/h6144m5.2m/s0°C0%0hPa0V00:00:0000:00:0000:00:00
ATIDSZ-142026-09-03 11:35:0947.3870119.29026120°49km/h6074m5.8m/s-16.0°C59.0%483.2hPa0V00:00:0000:00:0000:00:00
ATIDSZ-142026-09-03 11:34:3047.3896419.28443111°35km/h5812m8.7m/s0°C0%0hPa0V00:00:0000:00:0000:00:00
GYPAP8-172026-09-03 11:34:2247.3899019.28343113°44km/h5761m8.3m/s0°C0%0hPa0V00:00:0000:00:0000:00:00
ATIDSZ-142026-09-03 11:34:0847.3904719.28162128°42km/h5652m7.8m/s0°C0%0hPa0V00:00:0000:00:0000:00:00
ATIDSZ-142026-09-03 11:33:4847.3917519.27849119°49km/h5494m8.4m/s0°C0%0hPa0V00:00:0000:00:0000:00:00
GYPAP8-172026-09-03 11:33:3747.3924319.27686121°47km/h5406m8.0m/s0°C0%0hPa0V00:00:0000:00:0000:00:00
ATIDSZ-142026-09-03 11:33:2747.3930319.27533118°47km/h5329m8.0m/s0°C0%0hPa0V00:00:0000:00:0000:00:00
ATIDSZ-142026-09-03 11:33:0747.3942419.27229117°46km/h5176m7.8m/s0°C0%0hPa0V00:00:0000:00:0000:00:00
GYPAP8-172026-09-03 11:32:5247.3951719.26983124°47km/h5046m8.6m/s0°C0%0hPa0V00:00:0000:00:0000:00:00
GYPAP8-172026-09-03 11:32:0747.3974419.26414134°49km/h4730m6.8m/s0°C0%0hPa0V00:00:0000:00:0000:00:00
ATIDSZ-142026-09-03 11:32:0047.3978819.26301100°46km/h4688m9.1m/s0°C0%0hPa0V00:00:0000:00:0000:00:00
ATIDSZ-142026-09-03 11:30:0547.4019119.24541118°46km/h3976m9.2m/s0°C0%0hPa0V00:00:0000:00:0000:00:00
ATIDSZ-142026-09-03 11:29:1047.4039619.23743116°49km/h3627m6.9m/s0°C0%0hPa0V00:00:0000:00:0000:00:00
ATIDSZ-142026-09-03 11:28:4847.4049819.23407117°49km/h3488m7.8m/s0°C0%0hPa0V00:00:0000:00:0000:00:00
ATIDSZ-142026-09-03 11:28:2747.4059419.23093124°47km/h3353m4.8m/s0°C0%0hPa0V00:00:0000:00:0000:00:00
OM5KV2026-09-03 11:28:1847.4063019.22965113°46km/h3300m7.8m/s0.3°C63.0%690.1hPa0V00:00:0000:00:0000:00:00
OM5KV2026-09-03 11:28:0647.4068019.22790111°44km/h3221m5.0m/s0.9°C40.9%696.9hPa0V00:00:0000:00:0000:00:00
ATIDSZ-142026-09-03 11:28:0347.4068919.22749117°35km/h3203m7.0m/s0°C0%0hPa0V00:00:0000:00:0000:00:00
OM5KV2026-09-03 11:27:4347.4078219.22462112°35km/h3090m6.3m/s2.1°C36.0%708.4hPa0V00:00:0000:00:0000:00:00
ATIDSZ-142026-09-03 11:27:4147.4079019.22438120°37km/h3078m7.0m/s0°C0%0hPa0V00:00:0000:00:0000:00:00
OM5KV2026-09-03 11:27:3747.4081219.22376114°44km/h3057m6.4m/s2.4°C36.3%711.4hPa0V00:00:0000:00:0000:00:00
OM5KV2026-09-03 11:27:3047.4084319.22281114°42km/h3020m6.7m/s2.7°C37.5%714.7hPa0V00:00:0000:00:0000:00:00
OM5KV2026-09-03 11:27:2447.4086819.22198105°42km/h2985m5.7m/s2.9°C39.9%717.6hPa0V00:00:0000:00:0000:00:00
ATIDSZ-142026-09-03 11:27:1947.4088719.22136121°40km/h2957m6.5m/s0°C0%0hPa0V00:00:0000:00:0000:00:00
OM5KV2026-09-03 11:27:0747.4092919.21978109°33km/h2896m5.3m/s3.2°C39.3%725.5hPa0V00:00:0000:00:0000:00:00
OM5KV2026-09-03 11:27:0247.4094419.21908113°38km/h2869m4.6m/s3.4°C37.6%728.1hPa0V00:00:0000:00:0000:00:00
ATIDSZ-142026-09-03 11:26:5947.4095519.21864109°42km/h2853m3.7m/s0°C0%0hPa0V00:00:0000:00:0000:00:00
OM5KV2026-09-03 11:26:5647.4096219.21827111°29km/h2837m7.1m/s3.6°C37.7%730.9hPa0V00:00:0000:00:0000:00:00
OM5KV2026-09-03 11:26:5147.4098419.21750107°31km/h2804m5.9m/s3.9°C36.8%733.7hPa0V00:00:0000:00:0000:00:00
OM5KV2026-09-03 11:26:4447.4100419.21685103°35km/h2775m5.2m/s4.0°C37.8%736.2hPa0V00:00:0000:00:0000:00:00
OM5KV2026-09-03 11:26:3947.4101819.21630115°37km/h2748m5.1m/s4.3°C37.7%738.7hPa0V00:00:0000:00:0000:00:00
ATIDSZ-142026-09-03 11:26:3247.4104819.21552122°40km/h2713m5.8m/s0°C0%0hPa0V00:00:0000:00:0000:00:00
OM5KV2026-09-03 11:26:2947.4106419.21505126°35km/h2693m5.5m/s4.5°C37.6%743.5hPa0V00:00:0000:00:0000:00:00
OM5KV2026-09-03 11:26:1847.4111919.21371131°33km/h2635m5.3m/s4.7°C45.1%748.8hPa0V00:00:0000:00:0000:00:00
OM5KV2026-09-03 11:26:1647.4112519.21361136°38km/h2630m7.3m/s4.8°C44.1%749.4hPa0V00:00:0000:00:0000:00:00
OM5KV2026-09-03 11:26:1047.4116619.21282127°37km/h2603m3.8m/s5.0°C46.4%752.0hPa0V00:00:0000:00:0000:00:00
OM5KV2026-09-03 11:26:0547.4119919.21219117°42km/h2579m5.7m/s4.9°C56.7%754.4hPa0V00:00:0000:00:0000:00:00
OM5KV2026-09-03 11:25:5847.4123819.21136128°44km/h2545m6.6m/s5.2°C54.1%757.6hPa0V00:00:0000:00:0000:00:00
OM5KV2026-09-03 11:25:5347.4127719.21080141°49km/h2518m5.0m/s5.3°C58.1%759.7hPa0V00:00:0000:00:0000:00:00
OM5KV2026-09-03 11:25:4847.4131819.21023142°46km/h2494m4.5m/s5.2°C65.6%762.1hPa0V00:00:0000:00:0000:00:00
OM5KV2026-09-03 11:25:4047.4139319.20919130°49km/h2455m4.4m/s5.5°C67.8%765.6hPa0V00:00:0000:00:0000:00:00
OM5KV2026-09-03 11:25:2647.4150319.20762133°29km/h2387m4.4m/s5.8°C73.4%771.8hPa0V00:00:0000:00:0000:00:00
OM5KV2026-09-03 11:25:2247.4152319.20729144°35km/h2369m4.0m/s6.0°C71.9%773.6hPa0V00:00:0000:00:0000:00:00
OM5KV2026-09-03 11:25:1347.4158919.20637139°46km/h2316m5.5m/s6.4°C72.8%778.8hPa0V00:00:0000:00:0000:00:00
OM5KV2026-09-03 11:25:0147.4169019.20498134°49km/h2254m6.3m/s6.9°C71.4%784.7hPa0V00:00:0000:00:0000:00:00
OM5KV2026-09-03 11:25:0047.4169819.20485134°49km/h2249m6.5m/s7.0°C70.7%785.2hPa0V00:00:0000:00:0000:00:00
OM5KV2026-09-03 11:24:5747.4172219.20439132°29km/h2227m6.3m/s7.2°C70.0%787.4hPa0V00:00:0000:00:0000:00:00
OM5KV2026-09-03 11:24:5547.4172719.20431139°33km/h2221m6.3m/s7.3°C69.4%787.6hPa0V00:00:0000:00:0000:00:00
OM5KV2026-09-03 11:24:3047.4189519.20155133°40km/h2076m7.4m/s8.3°C73.3%801.7hPa0V00:00:0000:00:0000:00:00
OM5KV2026-09-03 11:24:2447.4193219.20096126°35km/h2034m7.2m/s8.8°C69.6%805.6hPa0V00:00:0000:00:0000:00:00
OM5KV2026-09-03 11:24:2347.4193819.20085131°35km/h2028m6.1m/s8.9°C69.4%806.2hPa0V00:00:0000:00:0000:00:00
OM5KV2026-09-03 11:24:1647.4197019.20020121°33km/h1985m6.2m/s9.2°C68.9%810.5hPa0V00:00:0000:00:0000:00:00
OM5KV2026-09-03 11:24:0947.4200719.19925118°29km/h1942m5.7m/s9.4°C75.5%814.5hPa0V00:00:0000:00:0000:00:00
OM5KV2026-09-03 11:24:0347.4203419.19855113°29km/h1920m3.3m/s9.9°C67.8%816.7hPa0V00:00:0000:00:0000:00:00
OM5KV2026-09-03 11:24:0047.4204219.19833133°15km/h1904m5.0m/s9.9°C70.5%818.5hPa0V00:00:0000:00:0000:00:00
OM5KV2026-09-03 11:23:4347.4210519.19709122°26km/h1807m7.6m/s10.7°C70.2%827.9hPa0V00:00:0000:00:0000:00:00
OM5KV2026-09-03 11:23:3647.4213119.19656155°22km/h1760m7.8m/s11.1°C0%832.6hPa0V00:00:0000:00:0000:00:00
OM5KV2026-09-03 11:23:3347.4214719.19634123°31km/h1739m7.9m/s11.3°C69.0%834.5hPa0V00:00:0000:00:0000:00:00
OM5KV2026-09-03 11:23:2447.4217719.19565119°16km/h1669m8.4m/s12.0°C0%841.7hPa0V00:00:0000:00:0000:00:00
OM5KV2026-09-03 11:23:1847.4218919.19516105°31km/h1625m8.9m/s12.5°C0%845.9hPa0V00:00:0000:00:0000:00:00
OM5KV2026-09-03 11:23:1447.4219819.19468111°26km/h1594m5.4m/s12.8°C62.5%849.3hPa0V00:00:0000:00:0000:00:00
OM5KV2026-09-03 11:23:0947.4221219.19424126°26km/h1558m8.5m/s13.1°C61.0%852.9hPa0V00:00:0000:00:0000:00:00
OM5KV2026-09-03 11:23:0447.4223519.19384113°35km/h1526m9.3m/s13.5°C0%856.2hPa0V00:00:0000:00:0000:00:00
OM5KV2026-09-03 11:23:0147.4225019.19329127°37km/h1499m7.6m/s13.7°C0%858.9hPa0V00:00:0000:00:0000:00:00
OM5KV2026-09-03 11:22:5447.4226719.19270125°31km/h1459m4.1m/s0°C0%862.8hPa0V00:00:0000:00:0000:00:00
OM5KV2026-09-03 11:22:5347.4227219.19261133°29km/h1454m7.0m/s0°C0%863.2hPa0V00:00:0000:00:0000:00:00
OM5KV2026-09-03 11:22:4847.4228919.19219100°37km/h1423m9.0m/s0°C0%866.5hPa0V00:00:0000:00:0000:00:00
OM5KV2026-09-03 11:22:3847.4231219.1912599°20km/h1356m4.2m/s0°C0%0hPa0V00:00:0000:00:0000:00:00
OM5KV2026-09-03 11:22:3347.4232119.19096118°16km/h1321m7.7m/s0°C0%0hPa0V00:00:0000:00:0000:00:00
OM5KV2026-09-03 11:22:3247.4232319.1908995°24km/h1315m6.0m/s0°C0%0hPa0V00:00:0000:00:0000:00:00
OM5KV2026-09-03 11:22:2647.4232519.19044103°27km/h1276m5.4m/s0°C0%0hPa0V00:00:0000:00:0000:00:00
OM5KV2026-09-03 11:22:2547.4232719.19034119°31km/h1270m8.5m/s0°C0%0hPa0V00:00:0000:00:0000:00:00
OM5KV2026-09-03 11:22:2047.4234719.19006104°20km/h1234m7.7m/s0°C0%0hPa0V00:00:0000:00:0000:00:00
OM5KV2026-09-03 11:22:2047.4234819.1899992°20km/h1227m6.3m/s0°C0%0hPa0V00:00:0000:00:0000:00:00
OM5KV2026-09-03 11:22:1247.4236019.1896075°26km/h1171m10.7m/s0°C0%0hPa0V00:00:0000:00:0000:00:00


GPX KML Map

© wettersonde.net (DO2JMG) - 2026  -  -